<?xml version='1.0' encoding='UTF-8'?><gpx version="1.1" creator="JPX - https://github.com/jenetics/jpx" xmlns="http://www.topografix.com/GPX/1/1"><trk><trkseg><trkpt lat="42.38557566486131" lon="13.263469051478305"><ele>1003.0</ele><time>2026-04-04T14:36:16Z</time></trkpt><trkpt lat="42.38560991176005" lon="13.263358403476694"><ele>1003.0</ele><time>2026-04-04T14:36:18Z</time></trkpt><trkpt lat="42.38562944449522" lon="13.263250166941907"><ele>1003.0</ele><time>2026-04-04T14:36:20Z</time></trkpt><trkpt lat="42.38571577151295" lon="13.263186547470676"><ele>1003.0</ele><time>2026-04-04T14:36:23Z</time></trkpt><trkpt lat="42.38579738321159" lon="13.26311875520958"><ele>1003.0</ele><time>2026-04-04T14:36:26Z</time></trkpt><trkpt lat="42.38588089564038" lon="13.263086998831898"><ele>1007.6666666666666</ele><time>2026-04-04T14:36:27.999Z</time></trkpt><trkpt lat="42.38593852090305" lon="13.263033522440557"><ele>1012.3333333333333</ele><time>2026-04-04T14:36:29.999Z</time></trkpt><trkpt lat="42.38599350991153" lon="13.262960558062455"><ele>1017.0</ele><time>2026-04-04T14:36:31.999Z</time></trkpt><trkpt lat="42.38605731706474" lon="13.262902946716075"><ele>1021.6666666666667</ele><time>2026-04-04T14:36:34.999Z</time></trkpt><trkpt lat="42.38612897266489" lon="13.262901921090215"><ele>1026.3333333333335</ele><time>2026-04-04T14:36:37.999Z</time></trkpt><trkpt lat="42.386209255268525" lon="13.262862984927006"><ele>1031.0</ele><time>2026-04-04T14:36:39.999Z</time></trkpt><trkpt lat="42.38629401954449" lon="13.262834059962586"><ele>1029.2857142857142</ele><time>2026-04-04T14:36:41.999Z</time></trkpt><trkpt lat="42.38636574263413" lon="13.262791136345628"><ele>1027.5714285714284</ele><time>2026-04-04T14:36:43.999Z</time></trkpt><trkpt lat="42.38643695255546" lon="13.26273957674962"><ele>1025.857142857143</ele><time>2026-04-04T14:36:45.999Z</time></trkpt><trkpt lat="42.386505128506656" lon="13.26274082920298"><ele>1024.142857142857</ele><time>2026-04-04T14:36:47.999Z</time></trkpt><trkpt lat="42.386568975857905" lon="13.262757887183202"><ele>1022.4285714285714</ele><time>2026-04-04T14:36:51.999Z</time></trkpt><trkpt lat="42.38665313096321" lon="13.262745980276739"><ele>1020.7142857142858</ele><time>2026-04-04T14:36:54.999Z</time></trkpt><trkpt lat="42.386714661221625" lon="13.262708079788883"><ele>1019.0000000000001</ele><time>2026-04-04T14:36:56.999Z</time></trkpt><trkpt lat="42.38677657872103" lon="13.262678887641485"><ele>1019.0000000000001</ele><time>2026-04-04T14:36:58.999Z</time></trkpt><trkpt lat="42.386817179007174" lon="13.262608946878975"><ele>1019.0</ele><time>2026-04-04T14:37:00.999Z</time></trkpt><trkpt lat="42.386885923003156" lon="13.262550273723809"><ele>1019.0</ele><time>2026-04-04T14:37:02.999Z</time></trkpt><trkpt lat="42.38696034022743" lon="13.262510799512999"><ele>1019.0</ele><time>2026-04-04T14:37:04.999Z</time></trkpt><trkpt lat="42.387027441357716" lon="13.262475827425511"><ele>1019.0000000000001</ele><time>2026-04-04T14:37:06.999Z</time></trkpt><trkpt lat="42.38709711321776" lon="13.262451799746326"><ele>1019.0</ele><time>2026-04-04T14:37:08.999Z</time></trkpt><trkpt lat="42.38717413382801" lon="13.262414760444237"><ele>1016.5000000000001</ele><time>2026-04-04T14:37:10.999Z</time></trkpt><trkpt lat="42.387248243278165" lon="13.262350785434927"><ele>1014.0</ele><time>2026-04-04T14:37:12.999Z</time></trkpt><trkpt lat="42.38733331682099" lon="13.262329241546652"><ele>1011.5</ele><time>2026-04-04T14:37:14.999Z</time></trkpt><trkpt lat="42.38739888101296" lon="13.26225708077743"><ele>1009.0</ele><time>2026-04-04T14:37:16.999Z</time></trkpt><trkpt lat="42.38744289825337" lon="13.26218990963148"><ele>1006.5000000000001</ele><time>2026-04-04T14:37:17.999Z</time></trkpt><trkpt lat="42.38749737960151" lon="13.262110207136136"><ele>1004.0</ele><time>2026-04-04T14:37:18.999Z</time></trkpt><trkpt lat="42.387539447827876" lon="13.262037203990905"><ele>1009.1666666666667</ele><time>2026-04-04T14:37:19.999Z</time></trkpt><trkpt lat="42.38758500527672" lon="13.26196778332289"><ele>1014.3333333333334</ele><time>2026-04-04T14:37:20.999Z</time></trkpt><trkpt lat="42.387685198171354" lon="13.261888832746433"><ele>1019.5</ele><time>2026-04-04T14:37:22.999Z</time></trkpt><trkpt lat="42.38773812588618" lon="13.261840895947445"><ele>1024.6666666666667</ele><time>2026-04-04T14:37:23.999Z</time></trkpt><trkpt lat="42.38782250094017" lon="13.261756832746224"><ele>1029.8333333333333</ele><time>2026-04-04T14:37:25.999Z</time></trkpt><trkpt lat="42.38786347483412" lon="13.261665015626916"><ele>1035.0</ele><time>2026-04-04T14:37:27.999Z</time></trkpt><trkpt lat="42.387895397302266" lon="13.261533555894145"><ele>1036.5</ele><time>2026-04-04T14:37:29.999Z</time></trkpt><trkpt lat="42.387936169652804" lon="13.261424671176718"><ele>1038.0</ele><time>2026-04-04T14:37:31.999Z</time></trkpt><trkpt lat="42.38797595098945" lon="13.261353247754045"><ele>1039.5</ele><time>2026-04-04T14:37:33.999Z</time></trkpt><trkpt lat="42.388086074235126" lon="13.26130250616469"><ele>1041.0</ele><time>2026-04-04T14:37:35.999Z</time></trkpt><trkpt lat="42.388155987717475" lon="13.2612953734821"><ele>1042.5</ele><time>2026-04-04T14:37:39.999Z</time></trkpt><trkpt lat="42.38821537163402" lon="13.261263104028592"><ele>1044.0</ele><time>2026-04-04T14:37:43.998Z</time></trkpt><trkpt lat="42.388270637869866" lon="13.261220164688782"><ele>1044.0</ele><time>2026-04-04T14:38:30Z</time></trkpt><trkpt lat="42.38832204867432" lon="13.261125945921895"><ele>1044.0</ele><time>2026-04-04T14:38:33Z</time></trkpt><trkpt lat="42.388409562949214" lon="13.261059807162535"><ele>1044.0</ele><time>2026-04-04T14:38:34.999Z</time></trkpt><trkpt lat="42.38847693845691" lon="13.26099796494983"><ele>1044.0</ele><time>2026-04-04T14:38:36.999Z</time></trkpt><trkpt lat="42.38854324200123" lon="13.260970022641063"><ele>1044.0</ele><time>2026-04-04T14:38:38.999Z</time></trkpt><trkpt lat="42.388607481816784" lon="13.260958182127846"><ele>1044.0</ele><time>2026-04-04T14:38:40.999Z</time></trkpt><trkpt lat="42.38866165339665" lon="13.260911343955428"><ele>1044.0</ele><time>2026-04-04T14:38:44.999Z</time></trkpt><trkpt lat="42.388724743484175" lon="13.260863417845703"><ele>1044.0</ele><time>2026-04-04T14:38:48.999Z</time></trkpt><trkpt lat="42.38879066740644" lon="13.260800233932502"><ele>1044.0</ele><time>2026-04-04T14:38:51.999Z</time></trkpt><trkpt lat="42.388834779299124" lon="13.260731110797835"><ele>1044.0</ele><time>2026-04-04T14:38:53.999Z</time></trkpt><trkpt lat="42.388852864753396" lon="13.260629238304551"><ele>1044.0</ele><time>2026-04-04T14:38:56.999Z</time></trkpt><trkpt lat="42.388896215292306" lon="13.260559939732168"><ele>1044.0</ele><time>2026-04-04T14:39:13.999Z</time></trkpt><trkpt lat="42.38890902726521" lon="13.260444390013161"><ele>1043.1666666666667</ele><time>2026-04-04T14:39:16.999Z</time></trkpt><trkpt lat="42.388947963160646" lon="13.260366404001823"><ele>1042.3333333333333</ele><time>2026-04-04T14:39:21.999Z</time></trkpt><trkpt lat="42.38899365481232" lon="13.260307427391576"><ele>1041.5</ele><time>2026-04-04T14:39:24.999Z</time></trkpt><trkpt lat="42.389028276796886" lon="13.260220309602287"><ele>1040.6666666666665</ele><time>2026-04-04T14:39:28.999Z</time></trkpt><trkpt lat="42.38908025564749" lon="13.260091033733174"><ele>1039.8333333333333</ele><time>2026-04-04T14:39:45.999Z</time></trkpt><trkpt lat="42.389109840855724" lon="13.259988445234638"><ele>1039.0</ele><time>2026-04-04T14:39:48.998Z</time></trkpt><trkpt lat="42.38914868985802" lon="13.259912826361155"><ele>1039.0</ele><time>2026-04-04T14:39:53Z</time></trkpt><trkpt lat="42.38920713279232" lon="13.259838570862296"><ele>1039.0</ele><time>2026-04-04T14:39:55Z</time></trkpt><trkpt lat="42.38927575865671" lon="13.259767939009743"><ele>1039.0</ele><time>2026-04-04T14:39:58Z</time></trkpt><trkpt lat="42.38934254423262" lon="13.259657013746398"><ele>1039.0</ele><time>2026-04-04T14:40:02Z</time></trkpt><trkpt lat="42.389398897319694" lon="13.259597761281345"><ele>1039.0</ele><time>2026-04-04T14:40:04Z</time></trkpt><trkpt lat="42.38944449477865" lon="13.259530291921825"><ele>1039.0</ele><time>2026-04-04T14:40:07Z</time></trkpt><trkpt lat="42.389505499121555" lon="13.259508215782613"><ele>1039.1666666666665</ele><time>2026-04-04T14:40:11Z</time></trkpt><trkpt lat="42.38955958301704" lon="13.259442080583018"><ele>1039.3333333333333</ele><time>2026-04-04T14:40:14Z</time></trkpt><trkpt lat="42.389615697674614" lon="13.259393479362968"><ele>1039.5</ele><time>2026-04-04T14:40:17Z</time></trkpt><trkpt lat="42.389670088768305" lon="13.259338401022976"><ele>1039.6666666666667</ele><time>2026-04-04T14:40:19Z</time></trkpt><trkpt lat="42.38969883604465" lon="13.259237682780823"><ele>1039.8333333333335</ele><time>2026-04-04T14:40:21Z</time></trkpt><trkpt lat="42.38977561010495" lon="13.259171002178983"><ele>1040.0</ele><time>2026-04-04T14:40:23Z</time></trkpt><trkpt lat="42.389852328837485" lon="13.259125251879057"><ele>1040.0</ele><time>2026-04-04T14:40:26Z</time></trkpt><trkpt lat="42.389922387605836" lon="13.259086654123376"><ele>1040.0</ele><time>2026-04-04T14:40:29Z</time></trkpt><trkpt lat="42.38999583524639" lon="13.259022835999854"><ele>1040.0</ele><time>2026-04-04T14:40:32Z</time></trkpt><trkpt lat="42.39005591548817" lon="13.258990178745407"><ele>1040.0</ele><time>2026-04-04T14:40:37Z</time></trkpt><trkpt lat="42.39012491260577" lon="13.258957736383051"><ele>1040.0</ele><time>2026-04-04T14:40:40.999Z</time></trkpt><trkpt lat="42.390174418106334" lon="13.25888971745964"><ele>1040.0</ele><time>2026-04-04T14:40:42.999Z</time></trkpt><trkpt lat="42.39023384119198" lon="13.258800316247195"><ele>1043.7142857142858</ele><time>2026-04-04T14:40:56.999Z</time></trkpt><trkpt lat="42.390257769352395" lon="13.258712702748243"><ele>1047.4285714285716</ele><time>2026-04-04T14:40:59.999Z</time></trkpt><trkpt lat="42.39031781502983" lon="13.25867248659096"><ele>1051.142857142857</ele><time>2026-04-04T14:41:03.999Z</time></trkpt><trkpt lat="42.39040896777489" lon="13.258631893561649"><ele>1054.857142857143</ele><time>2026-04-04T14:41:07.999Z</time></trkpt><trkpt lat="42.39047088790444" lon="13.25857494986819"><ele>1058.5714285714284</ele><time>2026-04-04T14:41:09.999Z</time></trkpt><trkpt lat="42.39053022101661" lon="13.258614318443934"><ele>1062.2857142857142</ele><time>2026-04-04T14:41:12.999Z</time></trkpt><trkpt lat="42.390576502354406" lon="13.258682153351112"><ele>1066.0</ele><time>2026-04-04T14:41:16.999Z</time></trkpt><trkpt lat="42.390627024334975" lon="13.258733251121882"><ele>1066.6666666666665</ele><time>2026-04-04T14:41:21.999Z</time></trkpt><trkpt lat="42.39067853642084" lon="13.258809662901859"><ele>1067.3333333333333</ele><time>2026-04-04T14:41:26.999Z</time></trkpt><trkpt lat="42.39074236595345" lon="13.258826839976168"><ele>1068.0</ele><time>2026-04-04T14:41:28.999Z</time></trkpt><trkpt lat="42.39080750706486" lon="13.258867222912183"><ele>1068.6666666666667</ele><time>2026-04-04T14:41:30.999Z</time></trkpt><trkpt lat="42.390893136299255" lon="13.258829493516226"><ele>1069.3333333333335</ele><time>2026-04-04T14:41:33.999Z</time></trkpt><trkpt lat="42.39096619569114" lon="13.258800901949712"><ele>1070.0</ele><time>2026-04-04T14:41:36.999Z</time></trkpt><trkpt lat="42.39100681654293" lon="13.258885445362608"><ele>1070.0</ele><time>2026-04-04T14:41:39.999Z</time></trkpt><trkpt lat="42.39109569479585" lon="13.258867478283564"><ele>1070.0</ele><time>2026-04-04T14:41:42.999Z</time></trkpt><trkpt lat="42.39117315585143" lon="13.258776810796894"><ele>1070.0</ele><time>2026-04-04T14:41:44.999Z</time></trkpt><trkpt lat="42.39120145205017" lon="13.258689357072141"><ele>1070.0</ele><time>2026-04-04T14:41:46.999Z</time></trkpt><trkpt lat="42.39122199794098" lon="13.258596700178225"><ele>1070.0</ele><time>2026-04-04T14:41:49.999Z</time></trkpt><trkpt lat="42.391267015938965" lon="13.258523756638871"><ele>1070.0</ele><time>2026-04-04T14:41:51.999Z</time></trkpt><trkpt lat="42.39129957989985" lon="13.258433606699963"><ele>1068.857142857143</ele><time>2026-04-04T14:41:53.999Z</time></trkpt><trkpt lat="42.39135617423077" lon="13.258369306278187"><ele>1067.7142857142858</ele><time>2026-04-04T14:42:00Z</time></trkpt><trkpt lat="42.39142939420406" lon="13.258322604214198"><ele>1066.5714285714287</ele><time>2026-04-04T14:42:04Z</time></trkpt><trkpt lat="42.39149266240028" lon="13.258322451822433"><ele>1065.4285714285716</ele><time>2026-04-04T14:42:10Z</time></trkpt><trkpt lat="42.39158671362941" lon="13.258329417560061"><ele>1064.2857142857144</ele><time>2026-04-04T14:42:42Z</time></trkpt><trkpt lat="42.39161783265402" lon="13.258408890157481"><ele>1063.142857142857</ele><time>2026-04-04T14:43:19.999Z</time></trkpt><trkpt lat="42.39157863620931" lon="13.258331689659173"><ele>1062.0</ele><time>2026-04-04T14:46:17Z</time></trkpt><trkpt lat="42.391515567527854" lon="13.258328472666518"><ele>1062.0</ele><time>2026-04-04T14:46:55Z</time></trkpt><trkpt lat="42.39157437749757" lon="13.258274418637903"><ele>1062.0</ele><time>2026-04-04T14:47:40.999Z</time></trkpt><trkpt lat="42.391663064221504" lon="13.258269072184978"><ele>1062.0</ele><time>2026-04-04T14:49:30.999Z</time></trkpt><trkpt lat="42.391723077768546" lon="13.258241600263398"><ele>1062.0</ele><time>2026-04-04T14:50:47Z</time></trkpt><trkpt lat="42.3917721104182" lon="13.25818669314597"><ele>1062.0</ele><time>2026-04-04T14:50:56Z</time></trkpt><trkpt lat="42.39183674745089" lon="13.258201748617559"><ele>1062.0</ele><time>2026-04-04T14:51:08Z</time></trkpt><trkpt lat="42.39190821742434" lon="13.258162687446472"><ele>1062.0</ele><time>2026-04-04T14:51:16.999Z</time></trkpt><trkpt lat="42.39197337241914" lon="13.258181911614326"><ele>1064.142857142857</ele><time>2026-04-04T14:51:23.999Z</time></trkpt><trkpt lat="42.391975003961136" lon="13.258095421285393"><ele>1066.2857142857144</ele><time>2026-04-04T14:51:48.999Z</time></trkpt><trkpt lat="42.39200195301643" lon="13.258012694263082"><ele>1068.4285714285716</ele><time>2026-04-04T14:51:50.999Z</time></trkpt><trkpt lat="42.392027709475066" lon="13.257922432593139"><ele>1070.5714285714287</ele><time>2026-04-04T14:51:59.999Z</time></trkpt><trkpt lat="42.39201422924108" lon="13.257825102497419"><ele>1072.7142857142858</ele><time>2026-04-04T14:52:02.999Z</time></trkpt><trkpt lat="42.39200847292182" lon="13.257704512473266"><ele>1074.857142857143</ele><time>2026-04-04T14:52:04.999Z</time></trkpt><trkpt lat="42.39199015405358" lon="13.25761094926075"><ele>1077.0</ele><time>2026-04-04T14:52:07.999Z</time></trkpt><trkpt lat="42.392026964192546" lon="13.257517066314989"><ele>1077.0</ele><time>2026-04-04T14:52:10.999Z</time></trkpt><trkpt lat="42.39205924543005" lon="13.257430974169147"><ele>1077.0</ele><time>2026-04-04T14:52:12.999Z</time></trkpt><trkpt lat="42.3920775552223" lon="13.257271411668736"><ele>1077.0</ele><time>2026-04-04T14:52:14.999Z</time></trkpt><trkpt lat="42.39210264953268" lon="13.257156619220744"><ele>1077.0</ele><time>2026-04-04T14:52:16.999Z</time></trkpt><trkpt lat="42.39213469460227" lon="13.257058104516403"><ele>1077.0</ele><time>2026-04-04T14:52:18.999Z</time></trkpt><trkpt lat="42.392175619878024" lon="13.256980147297975"><ele>1077.0</ele><time>2026-04-04T14:52:20.999Z</time></trkpt><trkpt lat="42.392212298821434" lon="13.256898710978367"><ele>1078.7142857142858</ele><time>2026-04-04T14:52:22.999Z</time></trkpt><trkpt lat="42.39220784555704" lon="13.256805848333887"><ele>1080.4285714285716</ele><time>2026-04-04T14:52:26Z</time></trkpt><trkpt lat="42.392208876997756" lon="13.256694828211135"><ele>1082.1428571428573</ele><time>2026-04-04T14:52:30Z</time></trkpt><trkpt lat="42.392192544406214" lon="13.256602922064364"><ele>1083.857142857143</ele><time>2026-04-04T14:52:36Z</time></trkpt><trkpt lat="42.392172533602576" lon="13.256520306852881"><ele>1085.5714285714287</ele><time>2026-04-04T14:52:40Z</time></trkpt><trkpt lat="42.39213723940901" lon="13.256446610741285"><ele>1087.2857142857144</ele><time>2026-04-04T14:53:38.999Z</time></trkpt><trkpt lat="42.3921525735752" lon="13.256359858171097"><ele>1089.0</ele><time>2026-04-04T14:54:26.999Z</time></trkpt><trkpt lat="42.39214920259318" lon="13.256273002343598"><ele>1089.1428571428573</ele><time>2026-04-04T14:54:33Z</time></trkpt><trkpt lat="42.392159161173254" lon="13.25618056628878"><ele>1089.2857142857142</ele><time>2026-04-04T14:54:38Z</time></trkpt><trkpt lat="42.39213824395118" lon="13.256087547694534"><ele>1089.4285714285716</ele><time>2026-04-04T14:54:41Z</time></trkpt><trkpt lat="42.39212078661866" lon="13.255997022181393"><ele>1089.5714285714287</ele><time>2026-04-04T14:54:43Z</time></trkpt><trkpt lat="42.39213183163828" lon="13.25589199478971"><ele>1089.7142857142858</ele><time>2026-04-04T14:54:46Z</time></trkpt><trkpt lat="42.39212795006577" lon="13.255801277474616"><ele>1089.857142857143</ele><time>2026-04-04T14:54:49Z</time></trkpt><trkpt lat="42.39212146500411" lon="13.255691670764666"><ele>1090.0</ele><time>2026-04-04T14:54:52Z</time></trkpt><trkpt lat="42.39212976312943" lon="13.255558428047554"><ele>1090.0</ele><time>2026-04-04T14:54:55Z</time></trkpt><trkpt lat="42.39212440833895" lon="13.255444342221349"><ele>1090.0</ele><time>2026-04-04T14:54:58Z</time></trkpt><trkpt lat="42.39214675589665" lon="13.255317908916988"><ele>1090.0</ele><time>2026-04-04T14:55:05Z</time></trkpt><trkpt lat="42.39216618827505" lon="13.255215847263697"><ele>1090.0</ele><time>2026-04-04T14:55:07Z</time></trkpt><trkpt lat="42.39218962958964" lon="13.255112907344508"><ele>1090.0</ele><time>2026-04-04T14:55:09Z</time></trkpt><trkpt lat="42.392200592202485" lon="13.255016748308034"><ele>1090.0</ele><time>2026-04-04T14:55:11Z</time></trkpt><trkpt lat="42.39220192332081" lon="13.254917311487395"><ele>1078.8</ele><time>2026-04-04T14:55:13Z</time></trkpt><trkpt lat="42.39220536410476" lon="13.254817527451038"><ele>1067.6</ele><time>2026-04-04T14:55:15Z</time></trkpt><trkpt lat="42.39221166435004" lon="13.25469130073417"><ele>1056.4</ele><time>2026-04-04T14:55:18Z</time></trkpt><trkpt lat="42.39219812450161" lon="13.25455633238301"><ele>1045.2</ele><time>2026-04-04T14:55:20Z</time></trkpt><trkpt lat="42.39219624193797" lon="13.25443836923688"><ele>1034.0</ele><time>2026-04-04T14:55:23Z</time></trkpt><trkpt lat="42.39218704712772" lon="13.254301139859683"><ele>1034.0</ele><time>2026-04-04T14:55:25.999Z</time></trkpt><trkpt lat="42.3921830588696" lon="13.254169937684821"><ele>1034.0</ele><time>2026-04-04T14:55:27.999Z</time></trkpt><trkpt lat="42.39218186245059" lon="13.254063319567281"><ele>1034.0</ele><time>2026-04-04T14:55:29.999Z</time></trkpt><trkpt lat="42.39221234037715" lon="13.253957872696416"><ele>1034.0</ele><time>2026-04-04T14:55:31.999Z</time></trkpt><trkpt lat="42.39221698976619" lon="13.253872254963259"><ele>1034.0</ele><time>2026-04-04T14:55:33.999Z</time></trkpt><trkpt lat="42.39221272880473" lon="13.253727293754016"><ele>1034.0</ele><time>2026-04-04T14:55:35.999Z</time></trkpt><trkpt lat="42.392251884079364" lon="13.253624853739034"><ele>1035.0</ele><time>2026-04-04T14:55:37.999Z</time></trkpt><trkpt lat="42.39228426297253" lon="13.253547566969116"><ele>1036.0</ele><time>2026-04-04T14:55:39.999Z</time></trkpt><trkpt lat="42.392302531580604" lon="13.2534524092177"><ele>1037.0</ele><time>2026-04-04T14:55:41.999Z</time></trkpt><trkpt lat="42.39232596005018" lon="13.253350011348491"><ele>1038.0</ele><time>2026-04-04T14:55:44.999Z</time></trkpt><trkpt lat="42.39236250989297" lon="13.253250107472473"><ele>1039.0</ele><time>2026-04-04T14:55:48.999Z</time></trkpt><trkpt lat="42.39242029446163" lon="13.253196523137246"><ele>1040.0</ele><time>2026-04-04T14:55:52.999Z</time></trkpt><trkpt lat="42.39242944659235" lon="13.253060955245012"><ele>1041.1666666666667</ele><time>2026-04-04T14:56:24.999Z</time></trkpt><trkpt lat="42.3924359711602" lon="13.252936949688552"><ele>1042.3333333333335</ele><time>2026-04-04T14:58:02.999Z</time></trkpt><trkpt lat="42.392431473393934" lon="13.252835458943013"><ele>1043.5</ele><time>2026-04-04T14:58:06.999Z</time></trkpt><trkpt lat="42.39240772949131" lon="13.252739035236997"><ele>1044.6666666666667</ele><time>2026-04-04T14:58:09.999Z</time></trkpt><trkpt lat="42.392399037359475" lon="13.252643447667168"><ele>1045.8333333333333</ele><time>2026-04-04T14:58:11.999Z</time></trkpt><trkpt lat="42.392399249690435" lon="13.252547786473812"><ele>1047.0</ele><time>2026-04-04T14:58:14.999Z</time></trkpt><trkpt lat="42.39236551844738" lon="13.252422839242024"><ele>1047.0</ele><time>2026-04-04T14:58:16.999Z</time></trkpt><trkpt lat="42.39238521456721" lon="13.252310274888824"><ele>1047.0</ele><time>2026-04-04T14:58:18.999Z</time></trkpt><trkpt lat="42.39241013595372" lon="13.252192947992352"><ele>1047.0</ele><time>2026-04-04T14:58:20.999Z</time></trkpt><trkpt lat="42.39242032601099" lon="13.252106173928768"><ele>1047.0</ele><time>2026-04-04T14:58:23.999Z</time></trkpt><trkpt lat="42.392437405715505" lon="13.251999707195042"><ele>1047.0</ele><time>2026-04-04T14:58:24.999Z</time></trkpt><trkpt lat="42.39246953194577" lon="13.251870540846896"><ele>1047.0</ele><time>2026-04-04T14:58:26.999Z</time></trkpt><trkpt lat="42.3924996392874" lon="13.251779128281695"><ele>1047.8333333333333</ele><time>2026-04-04T14:58:28.999Z</time></trkpt><trkpt lat="42.39253424113009" lon="13.251692217188925"><ele>1048.6666666666667</ele><time>2026-04-04T14:58:30.999Z</time></trkpt><trkpt lat="42.392563522169425" lon="13.251598324913031"><ele>1049.5</ele><time>2026-04-04T14:58:32.999Z</time></trkpt><trkpt lat="42.392630926399946" lon="13.251531885076446"><ele>1050.3333333333335</ele><time>2026-04-04T14:58:34.999Z</time></trkpt><trkpt lat="42.39267328495583" lon="13.251455579935158"><ele>1051.1666666666667</ele><time>2026-04-04T14:58:36.999Z</time></trkpt><trkpt lat="42.39270755335386" lon="13.251352711947419"><ele>1052.0</ele><time>2026-04-04T14:58:38.999Z</time></trkpt><trkpt lat="42.392752493676625" lon="13.25125175684699"><ele>1053.1666666666667</ele><time>2026-04-04T14:58:41.999Z</time></trkpt><trkpt lat="42.39277257717284" lon="13.251158500345072"><ele>1054.3333333333335</ele><time>2026-04-04T14:58:44Z</time></trkpt><trkpt lat="42.392839735089886" lon="13.251059774474905"><ele>1055.5</ele><time>2026-04-04T14:58:46Z</time></trkpt><trkpt lat="42.39290072702702" lon="13.250994281603823"><ele>1056.6666666666667</ele><time>2026-04-04T14:58:48Z</time></trkpt><trkpt lat="42.39294913560722" lon="13.250913499690595"><ele>1057.8333333333333</ele><time>2026-04-04T14:58:50Z</time></trkpt><trkpt lat="42.39296458023986" lon="13.250814540149424"><ele>1059.0</ele><time>2026-04-04T14:58:52Z</time></trkpt><trkpt lat="42.39299353473846" lon="13.250682472231414"><ele>1060.8</ele><time>2026-04-04T14:58:55Z</time></trkpt><trkpt lat="42.39299709435816" lon="13.250595731089234"><ele>1062.6000000000001</ele><time>2026-04-04T14:58:57Z</time></trkpt><trkpt lat="42.39300349415609" lon="13.250390754923666"><ele>1064.4</ele><time>2026-04-04T14:59:03Z</time></trkpt><trkpt lat="42.39301437698729" lon="13.250278844617085"><ele>1066.2</ele><time>2026-04-04T14:59:06Z</time></trkpt><trkpt lat="42.39301870928515" lon="13.250083982302042"><ele>1068.0</ele><time>2026-04-04T14:59:09Z</time></trkpt><trkpt lat="42.39306943021231" lon="13.249990174561624"><ele>1063.0</ele><time>2026-04-04T14:59:11Z</time></trkpt><trkpt lat="42.39310661361815" lon="13.249920807906294"><ele>1058.0</ele><time>2026-04-04T14:59:13Z</time></trkpt><trkpt lat="42.39311261466786" lon="13.249807972792073"><ele>1053.0</ele><time>2026-04-04T14:59:16Z</time></trkpt><trkpt lat="42.39313939846601" lon="13.249668272960509"><ele>1048.0</ele><time>2026-04-04T14:59:18Z</time></trkpt><trkpt lat="42.39316907689419" lon="13.24956378336801"><ele>1043.0</ele><time>2026-04-04T14:59:20Z</time></trkpt><trkpt lat="42.39319922355461" lon="13.249463563597862"><ele>1038.0</ele><time>2026-04-04T14:59:22Z</time></trkpt><trkpt lat="42.39322414409353" lon="13.249373677574251"><ele>1038.0</ele><time>2026-04-04T14:59:24Z</time></trkpt><trkpt lat="42.393240533823175" lon="13.24928053492175"><ele>1038.0</ele><time>2026-04-04T14:59:27Z</time></trkpt><trkpt lat="42.39327265562477" lon="13.249206452629858"><ele>1038.0</ele><time>2026-04-04T15:00:36.999Z</time></trkpt><trkpt lat="42.393355819410644" lon="13.249199709433995"><ele>1038.0</ele><time>2026-04-04T15:00:39.999Z</time></trkpt><trkpt lat="42.39344297020205" lon="13.249166259083674"><ele>1038.0</ele><time>2026-04-04T15:00:41.999Z</time></trkpt><trkpt lat="42.39348847317537" lon="13.249056791476425"><ele>1038.0</ele><time>2026-04-04T15:00:44.999Z</time></trkpt><trkpt lat="42.393545109871724" lon="13.248961619471837"><ele>1038.3333333333333</ele><time>2026-04-04T15:00:47.999Z</time></trkpt><trkpt lat="42.39361457050817" lon="13.248912835834677"><ele>1038.6666666666667</ele><time>2026-04-04T15:00:50Z</time></trkpt><trkpt lat="42.39365159424984" lon="13.248831672153388"><ele>1039.0</ele><time>2026-04-04T15:00:52Z</time></trkpt><trkpt lat="42.393669850317465" lon="13.248702419994709"><ele>1039.3333333333335</ele><time>2026-04-04T15:00:54Z</time></trkpt><trkpt lat="42.3937023935815" lon="13.248608075372488"><ele>1039.6666666666667</ele><time>2026-04-04T15:00:56Z</time></trkpt><trkpt lat="42.3936600286882" lon="13.2485404616457"><ele>1040.0</ele><time>2026-04-04T15:00:58Z</time></trkpt><trkpt lat="42.39359526020617" lon="13.248479004929344"><ele>1040.0</ele><time>2026-04-04T15:01:01Z</time></trkpt><trkpt lat="42.39360099892525" lon="13.248345437119225"><ele>1040.0</ele><time>2026-04-04T15:01:04Z</time></trkpt><trkpt lat="42.39358351879784" lon="13.248233854211223"><ele>1040.0</ele><time>2026-04-04T15:01:06Z</time></trkpt><trkpt lat="42.39349706588577" lon="13.248123618342335"><ele>1040.0</ele><time>2026-04-04T15:01:08Z</time></trkpt><trkpt lat="42.39349535466468" lon="13.248003926558757"><ele>1040.0</ele><time>2026-04-04T15:01:11Z</time></trkpt><trkpt lat="42.393520966172915" lon="13.247883875466519"><ele>1040.0</ele><time>2026-04-04T15:01:13Z</time></trkpt><trkpt lat="42.393539406805125" lon="13.247790655773539"><ele>1040.0</ele><time>2026-04-04T15:01:16Z</time></trkpt><trkpt lat="42.393516588908824" lon="13.247689477969303"><ele>1040.0</ele><time>2026-04-04T15:01:19Z</time></trkpt><trkpt lat="42.39355500018701" lon="13.247576108408529"><ele>1040.0</ele><time>2026-04-04T15:01:21Z</time></trkpt><trkpt lat="42.39357626457008" lon="13.247465116103168"><ele>1040.0</ele><time>2026-04-04T15:01:23Z</time></trkpt><trkpt lat="42.39358167984367" lon="13.247332939889759"><ele>1040.0</ele><time>2026-04-04T15:01:25Z</time></trkpt><trkpt lat="42.39355441852432" lon="13.24722843994184"><ele>1039.3333333333335</ele><time>2026-04-04T15:01:27Z</time></trkpt><trkpt lat="42.39352998885069" lon="13.24714037497642"><ele>1038.6666666666667</ele><time>2026-04-04T15:01:29Z</time></trkpt><trkpt lat="42.39351108041554" lon="13.247056100581135"><ele>1038.0</ele><time>2026-04-04T15:01:31Z</time></trkpt><trkpt lat="42.39349452165759" lon="13.246952022240004"><ele>1037.3333333333333</ele><time>2026-04-04T15:01:33Z</time></trkpt><trkpt lat="42.393493098155865" lon="13.246850695309991"><ele>1036.6666666666665</ele><time>2026-04-04T15:01:35Z</time></trkpt><trkpt lat="42.39345484580135" lon="13.24675346809631"><ele>1036.0</ele><time>2026-04-04T15:01:37Z</time></trkpt><trkpt lat="42.39341770121064" lon="13.246654143765515"><ele>1036.0</ele><time>2026-04-04T15:01:39Z</time></trkpt><trkpt lat="42.393365406452546" lon="13.246563018161023"><ele>1036.0</ele><time>2026-04-04T15:01:41Z</time></trkpt><trkpt lat="42.3933706365887" lon="13.246477349962499"><ele>1036.0</ele><time>2026-04-04T15:01:44Z</time></trkpt><trkpt lat="42.39344122354981" lon="13.246399918675818"><ele>1036.0</ele><time>2026-04-04T15:02:32.999Z</time></trkpt><trkpt lat="42.393499429555725" lon="13.246455115221874"><ele>1036.0</ele><time>2026-04-04T15:02:40.999Z</time></trkpt><trkpt lat="42.39356398951188" lon="13.246470090489726"><ele>1036.0</ele><time>2026-04-04T15:02:41.999Z</time></trkpt><trkpt lat="42.39364215953835" lon="13.246474101311534"><ele>1036.0</ele><time>2026-04-04T15:02:42.999Z</time></trkpt><trkpt lat="42.3937047776694" lon="13.246496521257425"><ele>1036.0</ele><time>2026-04-04T15:02:43.999Z</time></trkpt><trkpt lat="42.393806212118854" lon="13.246477140432537"><ele>1036.0</ele><time>2026-04-04T15:02:45.999Z</time></trkpt><trkpt lat="42.39387986227041" lon="13.246356028161982"><ele>1036.0</ele><time>2026-04-04T15:02:47.999Z</time></trkpt><trkpt lat="42.39389585483759" lon="13.246186261047056"><ele>1036.0</ele><time>2026-04-04T15:02:49.999Z</time></trkpt><trkpt lat="42.39389284928321" lon="13.246083787907402"><ele>1032.1666666666665</ele><time>2026-04-04T15:02:50.999Z</time></trkpt><trkpt lat="42.39389957102887" lon="13.245919029437715"><ele>1028.3333333333333</ele><time>2026-04-04T15:02:52.999Z</time></trkpt><trkpt lat="42.393942436859035" lon="13.245834558063867"><ele>1024.5</ele><time>2026-04-04T15:02:53.999Z</time></trkpt><trkpt lat="42.39399652958382" lon="13.24575594940512"><ele>1020.6666666666667</ele><time>2026-04-04T15:02:54.999Z</time></trkpt><trkpt lat="42.39404163406926" lon="13.245668791841059"><ele>1016.8333333333334</ele><time>2026-04-04T15:02:56Z</time></trkpt><trkpt lat="42.39409399992384" lon="13.245579395117865"><ele>1013.0</ele><time>2026-04-04T15:02:57Z</time></trkpt><trkpt lat="42.394145455502894" lon="13.245487621701207"><ele>1012.1666666666667</ele><time>2026-04-04T15:02:58Z</time></trkpt><trkpt lat="42.394188942985885" lon="13.24538760258992"><ele>1011.3333333333334</ele><time>2026-04-04T15:02:59Z</time></trkpt><trkpt lat="42.39422517814909" lon="13.245270218963496"><ele>1010.5</ele><time>2026-04-04T15:03:00Z</time></trkpt><trkpt lat="42.39426069073761" lon="13.245151875347533"><ele>1009.6666666666667</ele><time>2026-04-04T15:03:01Z</time></trkpt><trkpt lat="42.394297216029905" lon="13.245048116535338"><ele>1008.8333333333334</ele><time>2026-04-04T15:03:02Z</time></trkpt><trkpt lat="42.39433241915542" lon="13.244958919196305"><ele>1008.0</ele><time>2026-04-04T15:03:03Z</time></trkpt><trkpt lat="42.394353208235906" lon="13.244866256381993"><ele>1007.5</ele><time>2026-04-04T15:03:04Z</time></trkpt><trkpt lat="42.394360332930006" lon="13.244766515038595"><ele>1007.0</ele><time>2026-04-04T15:03:05Z</time></trkpt><trkpt lat="42.39436654914669" lon="13.244644408411455"><ele>1006.5</ele><time>2026-04-04T15:03:06Z</time></trkpt><trkpt lat="42.39437637700009" lon="13.244532049852257"><ele>1006.0</ele><time>2026-04-04T15:03:07Z</time></trkpt><trkpt lat="42.394399497506065" lon="13.244432405595099"><ele>1005.5</ele><time>2026-04-04T15:03:08Z</time></trkpt><trkpt lat="42.3944446351958" lon="13.244356857384693"><ele>1005.0</ele><time>2026-04-04T15:03:09Z</time></trkpt><trkpt lat="42.394508532341" lon="13.244295535466424"><ele>1005.0</ele><time>2026-04-04T15:03:10Z</time></trkpt><trkpt lat="42.394581583800644" lon="13.244252002095575"><ele>1005.0</ele><time>2026-04-04T15:03:11Z</time></trkpt><trkpt lat="42.39464294826962" lon="13.244186613575572"><ele>1005.0</ele><time>2026-04-04T15:03:12Z</time></trkpt><trkpt lat="42.39467741580237" lon="13.244113595135339"><ele>1005.0</ele><time>2026-04-04T15:03:13Z</time></trkpt><trkpt lat="42.39474646590424" lon="13.24395902471774"><ele>1005.0</ele><time>2026-04-04T15:03:15Z</time></trkpt><trkpt lat="42.394816165008535" lon="13.24392143287583"><ele>1005.0</ele><time>2026-04-04T15:03:16Z</time></trkpt><trkpt lat="42.394889842168" lon="13.243879528067936"><ele>998.6</ele><time>2026-04-04T15:03:17Z</time></trkpt><trkpt lat="42.394954426139996" lon="13.2438519466313"><ele>992.2</ele><time>2026-04-04T15:03:18Z</time></trkpt><trkpt lat="42.39504059146421" lon="13.243803578707968"><ele>985.8</ele><time>2026-04-04T15:03:20Z</time></trkpt><trkpt lat="42.39506839847885" lon="13.24367378074258"><ele>979.4</ele><time>2026-04-04T15:03:22Z</time></trkpt><trkpt lat="42.39508474052377" lon="13.24358947738909"><ele>973.0</ele><time>2026-04-04T15:03:23Z</time></trkpt><trkpt lat="42.39512560895975" lon="13.243401423099922"><ele>972.9999999999999</ele><time>2026-04-04T15:03:25Z</time></trkpt><trkpt lat="42.39515537578527" lon="13.243295909470955"><ele>973.0</ele><time>2026-04-04T15:03:26Z</time></trkpt><trkpt lat="42.395192740002585" lon="13.243190850922678"><ele>973.0</ele><time>2026-04-04T15:03:27Z</time></trkpt><trkpt lat="42.395236109741724" lon="13.243104868384243"><ele>973.0</ele><time>2026-04-04T15:03:28Z</time></trkpt><trkpt lat="42.39527648606622" lon="13.243013356345404"><ele>972.9999999999999</ele><time>2026-04-04T15:03:29Z</time></trkpt><trkpt lat="42.395356512397456" lon="13.242889346533678"><ele>973.0</ele><time>2026-04-04T15:03:31Z</time></trkpt><trkpt lat="42.395384960012606" lon="13.242795041028371"><ele>972.9999999999999</ele><time>2026-04-04T15:03:32Z</time></trkpt><trkpt lat="42.39540558483168" lon="13.242690706868173"><ele>973.0</ele><time>2026-04-04T15:03:33Z</time></trkpt><trkpt lat="42.39542097957035" lon="13.2425771955416"><ele>973.0</ele><time>2026-04-04T15:03:34Z</time></trkpt><trkpt lat="42.3954529394734" lon="13.24248233109623"><ele>973.0</ele><time>2026-04-04T15:03:35Z</time></trkpt><trkpt lat="42.395485028637225" lon="13.242406695569981"><ele>972.9999999999999</ele><time>2026-04-04T15:03:36Z</time></trkpt><trkpt lat="42.39547945557318" lon="13.242308774761291"><ele>973.0</ele><time>2026-04-04T15:03:37Z</time></trkpt><trkpt lat="42.39547027137463" lon="13.242189038369114"><ele>972.9999999999999</ele><time>2026-04-04T15:03:38Z</time></trkpt><trkpt lat="42.39549822917724" lon="13.242074197583316"><ele>973.0</ele><time>2026-04-04T15:03:39Z</time></trkpt><trkpt lat="42.39554163968072" lon="13.241970576351035"><ele>973.0</ele><time>2026-04-04T15:03:40Z</time></trkpt><trkpt lat="42.395600997743124" lon="13.241869988612063"><ele>973.0</ele><time>2026-04-04T15:03:41Z</time></trkpt><trkpt lat="42.39563595824713" lon="13.241765950010919"><ele>972.9999999999999</ele><time>2026-04-04T15:03:42Z</time></trkpt><trkpt lat="42.39565833195296" lon="13.241665142032888"><ele>973.0</ele><time>2026-04-04T15:03:43Z</time></trkpt><trkpt lat="42.39569647011839" lon="13.241567798757764"><ele>966.3333333333333</ele><time>2026-04-04T15:03:44Z</time></trkpt><trkpt lat="42.39574877227657" lon="13.24148882556688"><ele>959.6666666666666</ele><time>2026-04-04T15:03:45Z</time></trkpt><trkpt lat="42.395821726843494" lon="13.241433353726343"><ele>953.0</ele><time>2026-04-04T15:03:46Z</time></trkpt><trkpt lat="42.39588822414459" lon="13.241377322741558"><ele>946.3333333333333</ele><time>2026-04-04T15:03:47Z</time></trkpt><trkpt lat="42.395948464433474" lon="13.241316934341853"><ele>939.6666666666666</ele><time>2026-04-04T15:03:48Z</time></trkpt><trkpt lat="42.39600362225643" lon="13.241245197797134"><ele>933.0</ele><time>2026-04-04T15:03:49Z</time></trkpt><trkpt lat="42.39605900047545" lon="13.241177536027378"><ele>933.0</ele><time>2026-04-04T15:03:49.999Z</time></trkpt><trkpt lat="42.39614184131316" lon="13.24107900034872"><ele>933.0</ele><time>2026-04-04T15:03:51.999Z</time></trkpt><trkpt lat="42.39621349106238" lon="13.240997823071403"><ele>933.0</ele><time>2026-04-04T15:04:09.999Z</time></trkpt><trkpt lat="42.39626514816987" lon="13.240944813756819"><ele>933.0</ele><time>2026-04-04T15:05:09Z</time></trkpt><trkpt lat="42.396340023321784" lon="13.240908811023802"><ele>933.0</ele><time>2026-04-04T15:05:11Z</time></trkpt><trkpt lat="42.39640770156474" lon="13.240890029927053"><ele>933.0</ele><time>2026-04-04T15:05:12Z</time></trkpt><trkpt lat="42.39648550133903" lon="13.240871098903817"><ele>928.3333333333334</ele><time>2026-04-04T15:05:13Z</time></trkpt><trkpt lat="42.396564843004484" lon="13.240850388574005"><ele>923.6666666666667</ele><time>2026-04-04T15:05:14Z</time></trkpt><trkpt lat="42.396644634439966" lon="13.240822466291455"><ele>919.0</ele><time>2026-04-04T15:05:15Z</time></trkpt><trkpt lat="42.396723694461144" lon="13.240788794496233"><ele>914.3333333333334</ele><time>2026-04-04T15:05:16Z</time></trkpt><trkpt lat="42.39679862766467" lon="13.240754074742416"><ele>909.6666666666667</ele><time>2026-04-04T15:05:17Z</time></trkpt><trkpt lat="42.396872042601274" lon="13.240747144462892"><ele>905.0</ele><time>2026-04-04T15:05:18Z</time></trkpt><trkpt lat="42.396942564121616" lon="13.24076209937298"><ele>905.0000000000001</ele><time>2026-04-04T15:05:19Z</time></trkpt><trkpt lat="42.39701504230386" lon="13.24077367630164"><ele>905.0</ele><time>2026-04-04T15:05:20Z</time></trkpt><trkpt lat="42.397090206665176" lon="13.240780278945877"><ele>905.0</ele><time>2026-04-04T15:05:21Z</time></trkpt><trkpt lat="42.397171888471476" lon="13.240789985629283"><ele>905.0</ele><time>2026-04-04T15:05:22Z</time></trkpt><trkpt lat="42.397253567483936" lon="13.240802635330297"><ele>905.0000000000001</ele><time>2026-04-04T15:05:23Z</time></trkpt><trkpt lat="42.39733727973468" lon="13.240816289840996"><ele>905.0</ele><time>2026-04-04T15:05:24Z</time></trkpt><trkpt lat="42.39741485078412" lon="13.24082048137427"><ele>901.8333333333334</ele><time>2026-04-04T15:05:25Z</time></trkpt><trkpt lat="42.39748656481181" lon="13.24081523061743"><ele>898.6666666666667</ele><time>2026-04-04T15:05:26Z</time></trkpt><trkpt lat="42.39755610096344" lon="13.24082728635487"><ele>895.5</ele><time>2026-04-04T15:05:27Z</time></trkpt><trkpt lat="42.397624432886694" lon="13.240855533420362"><ele>892.3333333333333</ele><time>2026-04-04T15:05:28Z</time></trkpt><trkpt lat="42.3977020557216" lon="13.240896641511371"><ele>889.1666666666666</ele><time>2026-04-04T15:05:29Z</time></trkpt><trkpt lat="42.39777028963522" lon="13.240925216386364"><ele>886.0</ele><time>2026-04-04T15:05:30Z</time></trkpt><trkpt lat="42.39785730799614" lon="13.240938122594747"><ele>885.9999999999999</ele><time>2026-04-04T15:05:31Z</time></trkpt><trkpt lat="42.39793495111953" lon="13.240951735333798"><ele>886.0</ele><time>2026-04-04T15:05:32Z</time></trkpt><trkpt lat="42.39800918252878" lon="13.240952678723538"><ele>886.0</ele><time>2026-04-04T15:05:33Z</time></trkpt><trkpt lat="42.39808359191201" lon="13.240946961313297"><ele>886.0</ele><time>2026-04-04T15:05:34Z</time></trkpt><trkpt lat="42.39815532892265" lon="13.240970522205108"><ele>885.9999999999999</ele><time>2026-04-04T15:05:35Z</time></trkpt><trkpt lat="42.39822811159321" lon="13.241011464178417"><ele>886.0</ele><time>2026-04-04T15:05:36Z</time></trkpt><trkpt lat="42.398302078242764" lon="13.24105504965059"><ele>883.9999999999999</ele><time>2026-04-04T15:05:37Z</time></trkpt><trkpt lat="42.398376266995776" lon="13.241105210050183"><ele>882.0</ele><time>2026-04-04T15:05:38Z</time></trkpt><trkpt lat="42.39845901770064" lon="13.241150085027472"><ele>880.0</ele><time>2026-04-04T15:05:39Z</time></trkpt><trkpt lat="42.39854080354612" lon="13.24119820185121"><ele>878.0</ele><time>2026-04-04T15:05:40Z</time></trkpt><trkpt lat="42.39861635352114" lon="13.241250603114436"><ele>875.9999999999999</ele><time>2026-04-04T15:05:41Z</time></trkpt><trkpt lat="42.39869149993349" lon="13.241293778404616"><ele>874.0</ele><time>2026-04-04T15:05:42Z</time></trkpt><trkpt lat="42.398764709927725" lon="13.241322761565957"><ele>872.1666666666666</ele><time>2026-04-04T15:05:43Z</time></trkpt><trkpt lat="42.39884517638564" lon="13.241344746151066"><ele>870.3333333333333</ele><time>2026-04-04T15:05:44Z</time></trkpt><trkpt lat="42.39892636097002" lon="13.24136795888361"><ele>868.5</ele><time>2026-04-04T15:05:45Z</time></trkpt><trkpt lat="42.39900988757169" lon="13.241375139010469"><ele>866.6666666666667</ele><time>2026-04-04T15:05:46Z</time></trkpt><trkpt lat="42.39908714734527" lon="13.241377862526065"><ele>864.8333333333334</ele><time>2026-04-04T15:05:47Z</time></trkpt><trkpt lat="42.399166357695755" lon="13.241388071674923"><ele>863.0</ele><time>2026-04-04T15:05:48Z</time></trkpt><trkpt lat="42.39924614058608" lon="13.241398843180109"><ele>863.0000000000001</ele><time>2026-04-04T15:05:49Z</time></trkpt><trkpt lat="42.39932096114925" lon="13.241413527814453"><ele>863.0</ele><time>2026-04-04T15:05:50Z</time></trkpt><trkpt lat="42.39939507701165" lon="13.241423972492255"><ele>863.0</ele><time>2026-04-04T15:05:51Z</time></trkpt><trkpt lat="42.39946900307452" lon="13.241419533193648"><ele>863.0</ele><time>2026-04-04T15:05:52Z</time></trkpt><trkpt lat="42.399543984535526" lon="13.241408403131627"><ele>863.0000000000001</ele><time>2026-04-04T15:05:53Z</time></trkpt><trkpt lat="42.39961958817036" lon="13.241387135186342"><ele>863.0</ele><time>2026-04-04T15:05:54Z</time></trkpt><trkpt lat="42.39969392885923" lon="13.241361336174576"><ele>860.6666666666667</ele><time>2026-04-04T15:05:55Z</time></trkpt><trkpt lat="42.399770544791416" lon="13.241329225281934"><ele>858.3333333333334</ele><time>2026-04-04T15:05:55.999Z</time></trkpt><trkpt lat="42.3998432065285" lon="13.241285300557232"><ele>856.0</ele><time>2026-04-04T15:05:56.999Z</time></trkpt><trkpt lat="42.39991494627141" lon="13.241247968413308"><ele>853.6666666666667</ele><time>2026-04-04T15:05:57.999Z</time></trkpt><trkpt lat="42.3999917190372" lon="13.241236453602435"><ele>851.3333333333334</ele><time>2026-04-04T15:05:58.999Z</time></trkpt><trkpt lat="42.4000641627488" lon="13.241241478711826"><ele>849.0</ele><time>2026-04-04T15:05:59.999Z</time></trkpt><trkpt lat="42.40013239942497" lon="13.241250931989583"><ele>849.0000000000001</ele><time>2026-04-04T15:06:00.999Z</time></trkpt><trkpt lat="42.40020124218086" lon="13.241256219401418"><ele>849.0</ele><time>2026-04-04T15:06:01.999Z</time></trkpt><trkpt lat="42.40026918453014" lon="13.241272822761466"><ele>849.0</ele><time>2026-04-04T15:06:02.999Z</time></trkpt><trkpt lat="42.40033883252277" lon="13.241298020977478"><ele>849.0</ele><time>2026-04-04T15:06:03.999Z</time></trkpt><trkpt lat="42.40041128208187" lon="13.241326695016056"><ele>849.0</ele><time>2026-04-04T15:06:04.999Z</time></trkpt><trkpt lat="42.40048050755585" lon="13.241361179906098"><ele>849.0000000000001</ele><time>2026-04-04T15:06:05.999Z</time></trkpt><trkpt lat="42.40054730284269" lon="13.241388969407529"><ele>849.0</ele><time>2026-04-04T15:06:06.999Z</time></trkpt><trkpt lat="42.40060900017737" lon="13.241409855119391"><ele>849.0</ele><time>2026-04-04T15:06:07.999Z</time></trkpt><trkpt lat="42.40069907426508" lon="13.241376763583322"><ele>849.0</ele><time>2026-04-04T15:06:09.999Z</time></trkpt><trkpt lat="42.40078973608407" lon="13.241345324752121"><ele>849.0</ele><time>2026-04-04T15:06:11.999Z</time></trkpt><trkpt lat="42.40089487435587" lon="13.241312048528"><ele>849.0</ele><time>2026-04-04T15:06:13.999Z</time></trkpt><trkpt lat="42.401011322298075" lon="13.241255750392916"><ele>849.0</ele><time>2026-04-04T15:06:15.999Z</time></trkpt><trkpt lat="42.40107117784281" lon="13.241221812146142"><ele>849.0</ele><time>2026-04-04T15:06:16.999Z</time></trkpt><trkpt lat="42.40113218558153" lon="13.241183655525075"><ele>849.0</ele><time>2026-04-04T15:06:17.999Z</time></trkpt><trkpt lat="42.40119504097935" lon="13.241144139216486"><ele>849.0</ele><time>2026-04-04T15:06:18.999Z</time></trkpt><trkpt lat="42.4012615370082" lon="13.241110836207719"><ele>849.0</ele><time>2026-04-04T15:06:19.999Z</time></trkpt><trkpt lat="42.4013222705917" lon="13.241085461534023"><ele>849.0</ele><time>2026-04-04T15:06:20.999Z</time></trkpt><trkpt lat="42.40143841532977" lon="13.241037632714063"><ele>849.0</ele><time>2026-04-04T15:06:22.999Z</time></trkpt><trkpt lat="42.40151661201319" lon="13.240939405463527"><ele>847.6666666666666</ele><time>2026-04-04T15:06:24.999Z</time></trkpt><trkpt lat="42.40157578294637" lon="13.240880775186364"><ele>846.3333333333333</ele><time>2026-04-04T15:06:26.999Z</time></trkpt><trkpt lat="42.40162945431827" lon="13.240802184378245"><ele>845.0</ele><time>2026-04-04T15:06:48.999Z</time></trkpt><trkpt lat="42.40169250312098" lon="13.240713926455653"><ele>843.6666666666666</ele><time>2026-04-04T15:06:51.999Z</time></trkpt><trkpt lat="42.40178371338009" lon="13.240739050248775"><ele>842.3333333333333</ele><time>2026-04-04T15:06:53.999Z</time></trkpt><trkpt lat="42.40185179327907" lon="13.24078432349721"><ele>841.0</ele><time>2026-04-04T15:06:54.999Z</time></trkpt><trkpt lat="42.401921265334124" lon="13.240822871670101"><ele>840.9999999999999</ele><time>2026-04-04T15:06:55.999Z</time></trkpt><trkpt lat="42.401987470992935" lon="13.240859841480908"><ele>841.0</ele><time>2026-04-04T15:06:56.999Z</time></trkpt><trkpt lat="42.40204633329196" lon="13.24090030734528"><ele>841.0</ele><time>2026-04-04T15:06:57.999Z</time></trkpt><trkpt lat="42.40213224722465" lon="13.241012543806523"><ele>841.0</ele><time>2026-04-04T15:06:59.999Z</time></trkpt><trkpt lat="42.402214997330645" lon="13.24113434925914"><ele>840.9999999999999</ele><time>2026-04-04T15:07:01.999Z</time></trkpt><trkpt lat="42.40225966128835" lon="13.241195802830129"><ele>841.0</ele><time>2026-04-04T15:07:02.999Z</time></trkpt><trkpt lat="42.4023351547487" lon="13.241294730523988"><ele>840.6666666666666</ele><time>2026-04-04T15:07:04.999Z</time></trkpt><trkpt lat="42.40239616801682" lon="13.24138638132411"><ele>840.3333333333333</ele><time>2026-04-04T15:07:06.999Z</time></trkpt><trkpt lat="42.40245760499796" lon="13.24143428706245"><ele>840.0</ele><time>2026-04-04T15:07:13Z</time></trkpt><trkpt lat="42.402533318313324" lon="13.241330066001433"><ele>839.6666666666667</ele><time>2026-04-04T15:07:16Z</time></trkpt><trkpt lat="42.40260683427622" lon="13.241244682859207"><ele>839.3333333333334</ele><time>2026-04-04T15:07:18Z</time></trkpt><trkpt lat="42.40266470364551" lon="13.241196626699923"><ele>839.0</ele><time>2026-04-04T15:07:19Z</time></trkpt><trkpt lat="42.402729553990575" lon="13.241144013106414"><ele>839.0000000000001</ele><time>2026-04-04T15:07:20Z</time></trkpt><trkpt lat="42.40279860476109" lon="13.241084417407754"><ele>839.0</ele><time>2026-04-04T15:07:21Z</time></trkpt><trkpt lat="42.402882321309825" lon="13.241032716302481"><ele>839.0</ele><time>2026-04-04T15:07:22Z</time></trkpt><trkpt lat="42.40297830640471" lon="13.240988198641638"><ele>839.0</ele><time>2026-04-04T15:07:23Z</time></trkpt><trkpt lat="42.40306425669423" lon="13.240971685102592"><ele>839.0000000000001</ele><time>2026-04-04T15:07:24Z</time></trkpt><trkpt lat="42.403136519871815" lon="13.240964144030167"><ele>839.0</ele><time>2026-04-04T15:07:25Z</time></trkpt><trkpt lat="42.40321190858085" lon="13.240965845415706"><ele>840.0000000000001</ele><time>2026-04-04T15:07:26Z</time></trkpt><trkpt lat="42.40328781003615" lon="13.2409719185888"><ele>841.0</ele><time>2026-04-04T15:07:27Z</time></trkpt><trkpt lat="42.40336656052581" lon="13.240976755167683"><ele>842.0</ele><time>2026-04-04T15:07:28Z</time></trkpt><trkpt lat="42.40343233586791" lon="13.241006275844926"><ele>843.0</ele><time>2026-04-04T15:07:29Z</time></trkpt><trkpt lat="42.4035112205575" lon="13.241086003479221"><ele>844.0000000000001</ele><time>2026-04-04T15:07:31Z</time></trkpt><trkpt lat="42.40361987200924" lon="13.241087545468648"><ele>845.0</ele><time>2026-04-04T15:07:33Z</time></trkpt><trkpt lat="42.40369119356037" lon="13.241066652273416"><ele>845.0000000000001</ele><time>2026-04-04T15:07:34Z</time></trkpt><trkpt lat="42.40376774897355" lon="13.241049108711305"><ele>845.0</ele><time>2026-04-04T15:07:35Z</time></trkpt><trkpt lat="42.40385985877943" lon="13.241028126778078"><ele>845.0</ele><time>2026-04-04T15:07:36Z</time></trkpt><trkpt lat="42.40395615790192" lon="13.2410272818638"><ele>845.0</ele><time>2026-04-04T15:07:37Z</time></trkpt><trkpt lat="42.40404655058015" lon="13.241033413286845"><ele>845.0000000000001</ele><time>2026-04-04T15:07:38Z</time></trkpt><trkpt lat="42.40411730243415" lon="13.241034677026956"><ele>845.0</ele><time>2026-04-04T15:07:39Z</time></trkpt><trkpt lat="42.40418372525363" lon="13.24101805920982"><ele>847.1666666666667</ele><time>2026-04-04T15:07:41Z</time></trkpt><trkpt lat="42.40429461917363" lon="13.240990467026082"><ele>849.3333333333334</ele><time>2026-04-04T15:07:44Z</time></trkpt><trkpt lat="42.40436506160092" lon="13.240990100488856"><ele>851.5</ele><time>2026-04-04T15:07:45Z</time></trkpt><trkpt lat="42.40447945024701" lon="13.241007040490144"><ele>853.6666666666667</ele><time>2026-04-04T15:07:47Z</time></trkpt><trkpt lat="42.40453644080872" lon="13.24104763756052"><ele>855.8333333333334</ele><time>2026-04-04T15:07:49Z</time></trkpt><trkpt lat="42.4046154118952" lon="13.241078408402922"><ele>858.0</ele><time>2026-04-04T15:07:51Z</time></trkpt><trkpt lat="42.40470195476834" lon="13.241106456307028"><ele>862.4</ele><time>2026-04-04T15:07:53Z</time></trkpt><trkpt lat="42.4047900370763" lon="13.241085114842305"><ele>866.8</ele><time>2026-04-04T15:07:55Z</time></trkpt><trkpt lat="42.40488235302209" lon="13.24109825035097"><ele>871.2</ele><time>2026-04-04T15:07:57Z</time></trkpt><trkpt lat="42.40498592964377" lon="13.241083751174747"><ele>875.6</ele><time>2026-04-04T15:07:59Z</time></trkpt><trkpt lat="42.40506489501639" lon="13.241082343349177"><ele>880.0</ele><time>2026-04-04T15:08:00.999Z</time></trkpt><trkpt lat="42.405147271590245" lon="13.241038479462006"><ele>880.0</ele><time>2026-04-04T15:08:02.999Z</time></trkpt><trkpt lat="42.40525601141037" lon="13.24096851410171"><ele>880.0</ele><time>2026-04-04T15:08:05.999Z</time></trkpt><trkpt lat="42.405367176300146" lon="13.240974031550863"><ele>880.0</ele><time>2026-04-04T15:08:07.999Z</time></trkpt><trkpt lat="42.405462561819405" lon="13.241007640347126"><ele>880.0</ele><time>2026-04-04T15:08:09.999Z</time></trkpt><trkpt lat="42.405545753929026" lon="13.24102026281702"><ele>880.0</ele><time>2026-04-04T15:08:11.999Z</time></trkpt><trkpt lat="42.40561083080771" lon="13.241027169263797"><ele>884.0</ele><time>2026-04-04T15:08:13.999Z</time></trkpt><trkpt lat="42.40569483633547" lon="13.24102420390195"><ele>888.0</ele><time>2026-04-04T15:08:15.999Z</time></trkpt><trkpt lat="42.40578895710478" lon="13.241014050579217"><ele>892.0</ele><time>2026-04-04T15:08:18.999Z</time></trkpt><trkpt lat="42.40585993147499" lon="13.24107292498423"><ele>896.0</ele><time>2026-04-04T15:08:21.999Z</time></trkpt><trkpt lat="42.40595694336222" lon="13.241113901483322"><ele>900.0</ele><time>2026-04-04T15:08:24.999Z</time></trkpt><trkpt lat="42.40603760858923" lon="13.241155209568918"><ele>900.0</ele><time>2026-04-04T15:08:26.999Z</time></trkpt><trkpt lat="42.40612179128598" lon="13.241102354611504"><ele>900.0</ele><time>2026-04-04T15:08:29.999Z</time></trkpt><trkpt lat="42.40603561796951" lon="13.241139469847333"><ele>900.0</ele><time>2026-04-04T15:12:54.999Z</time></trkpt><trkpt lat="42.405980377808206" lon="13.241090623915223"><ele>900.0</ele><time>2026-04-04T15:12:57.999Z</time></trkpt><trkpt lat="42.40590403104028" lon="13.241046662134965"><ele>900.0</ele><time>2026-04-04T15:13:00.999Z</time></trkpt><trkpt lat="42.40582727599774" lon="13.24101035592803"><ele>900.0</ele><time>2026-04-04T15:13:04.999Z</time></trkpt><trkpt lat="42.4057619401821" lon="13.241006282748726"><ele>900.0000000000001</ele><time>2026-04-04T15:13:08.999Z</time></trkpt><trkpt lat="42.40568494412549" lon="13.241011291207645"><ele>900.0</ele><time>2026-04-04T15:13:12.999Z</time></trkpt><trkpt lat="42.40559828218107" lon="13.240999449178204"><ele>900.0000000000001</ele><time>2026-04-04T15:13:16.999Z</time></trkpt><trkpt lat="42.405529564070605" lon="13.24098332004789"><ele>900.0000000000001</ele><time>2026-04-04T15:13:19.999Z</time></trkpt><trkpt lat="42.4054638870373" lon="13.240979390103849"><ele>900.0</ele><time>2026-04-04T15:13:22.999Z</time></trkpt><trkpt lat="42.40538534155174" lon="13.2409572511682"><ele>900.0000000000001</ele><time>2026-04-04T15:13:26Z</time></trkpt><trkpt lat="42.40531922893319" lon="13.240943670320231"><ele>900.0000000000001</ele><time>2026-04-04T15:13:31Z</time></trkpt><trkpt lat="42.40540501778285" lon="13.240973360833944"><ele>900.0</ele><time>2026-04-04T15:14:39.999Z</time></trkpt><trkpt lat="42.40547727394733" lon="13.240990562765374"><ele>900.0</ele><time>2026-04-04T15:14:42.999Z</time></trkpt><trkpt lat="42.405546304142554" lon="13.240999448813051"><ele>900.0</ele><time>2026-04-04T15:14:45.999Z</time></trkpt><trkpt lat="42.40562541308618" lon="13.241012410547768"><ele>900.0</ele><time>2026-04-04T15:14:54.999Z</time></trkpt><trkpt lat="42.40570407310259" lon="13.24100696129086"><ele>900.0</ele><time>2026-04-04T15:14:57.999Z</time></trkpt><trkpt lat="42.40577616320124" lon="13.241018399599072"><ele>900.0</ele><time>2026-04-04T15:15:01.999Z</time></trkpt><trkpt lat="42.40585086342467" lon="13.241052276836001"><ele>900.0</ele><time>2026-04-04T15:15:07.999Z</time></trkpt><trkpt lat="42.4059125251633" lon="13.241088794815855"><ele>900.0</ele><time>2026-04-04T15:15:10.999Z</time></trkpt><trkpt lat="42.40598947493375" lon="13.241132582669795"><ele>900.0</ele><time>2026-04-04T15:15:12.999Z</time></trkpt><trkpt lat="42.40605165967157" lon="13.24116506450102"><ele>900.0</ele><time>2026-04-04T15:15:15.999Z</time></trkpt><trkpt lat="42.40611487518441" lon="13.241112551871392"><ele>900.0</ele><time>2026-04-04T15:15:18.999Z</time></trkpt><trkpt lat="42.40617901784656" lon="13.241006531020798"><ele>900.0</ele><time>2026-04-04T15:15:20.999Z</time></trkpt><trkpt lat="42.40621171144586" lon="13.240930314885869"><ele>900.0</ele><time>2026-04-04T15:15:21.999Z</time></trkpt><trkpt lat="42.406277747826834" lon="13.240813502502277"><ele>900.0</ele><time>2026-04-04T15:15:23.999Z</time></trkpt><trkpt lat="42.406323918808084" lon="13.240746931147418"><ele>900.0</ele><time>2026-04-04T15:15:25.999Z</time></trkpt><trkpt lat="42.406390315432716" lon="13.24062702308067"><ele>900.0</ele><time>2026-04-04T15:15:47Z</time></trkpt><trkpt lat="42.406432697106965" lon="13.240552419347804"><ele>900.0</ele><time>2026-04-04T15:15:48Z</time></trkpt><trkpt lat="42.406483344745816" lon="13.240469726874185"><ele>900.0</ele><time>2026-04-04T15:15:49Z</time></trkpt><trkpt lat="42.40654332139512" lon="13.24036161880094"><ele>904.25</ele><time>2026-04-04T15:15:50Z</time></trkpt><trkpt lat="42.40661771444949" lon="13.24022317421303"><ele>908.5</ele><time>2026-04-04T15:15:51Z</time></trkpt><trkpt lat="42.40670261001229" lon="13.240079625941"><ele>912.75</ele><time>2026-04-04T15:15:52Z</time></trkpt><trkpt lat="42.40679257533621" lon="13.23992006978655"><ele>917.0</ele><time>2026-04-04T15:15:53Z</time></trkpt><trkpt lat="42.40688149952332" lon="13.23976770076999"><ele>918.0</ele><time>2026-04-04T15:15:54Z</time></trkpt><trkpt lat="42.40694777852807" lon="13.239638509726927"><ele>919.0</ele><time>2026-04-04T15:15:55Z</time></trkpt><trkpt lat="42.406997696633496" lon="13.239569325775472"><ele>920.0</ele><time>2026-04-04T15:15:56Z</time></trkpt><trkpt lat="42.40708180609196" lon="13.23945810798613"><ele>921.0</ele><time>2026-04-04T15:15:58Z</time></trkpt><trkpt lat="42.40718878991189" lon="13.239377290275678"><ele>922.0</ele><time>2026-04-04T15:16:00Z</time></trkpt><trkpt lat="42.40729894388749" lon="13.23928702332646"><ele>923.2</ele><time>2026-04-04T15:16:02Z</time></trkpt><trkpt lat="42.40737561250705" lon="13.23923937405475"><ele>924.4000000000001</ele><time>2026-04-04T15:16:03Z</time></trkpt><trkpt lat="42.4074676774717" lon="13.239182361050094"><ele>925.5999999999999</ele><time>2026-04-04T15:16:04Z</time></trkpt><trkpt lat="42.407560556588095" lon="13.239117688749534"><ele>926.8</ele><time>2026-04-04T15:16:05Z</time></trkpt><trkpt lat="42.40764979917213" lon="13.239058798005628"><ele>928.0</ele><time>2026-04-04T15:16:06Z</time></trkpt><trkpt lat="42.407738144209574" lon="13.239008105937726"><ele>927.9999999999999</ele><time>2026-04-04T15:16:07Z</time></trkpt><trkpt lat="42.40781433675422" lon="13.238971862172617"><ele>928.0</ele><time>2026-04-04T15:16:08Z</time></trkpt><trkpt lat="42.40790455309709" lon="13.238984783791922"><ele>928.0</ele><time>2026-04-04T15:16:10Z</time></trkpt><trkpt lat="42.408013240916695" lon="13.239035465539146"><ele>928.0</ele><time>2026-04-04T15:16:12Z</time></trkpt><trkpt lat="42.40807644081418" lon="13.238987932114325"><ele>927.9999999999999</ele><time>2026-04-04T15:16:13Z</time></trkpt><trkpt lat="42.40813682771238" lon="13.238901266172848"><ele>928.0</ele><time>2026-04-04T15:16:14Z</time></trkpt><trkpt lat="42.40819340160321" lon="13.238788355157121"><ele>929.5999999999999</ele><time>2026-04-04T15:16:15Z</time></trkpt><trkpt lat="42.40824608432727" lon="13.238660963625538"><ele>931.1999999999999</ele><time>2026-04-04T15:16:16Z</time></trkpt><trkpt lat="42.40830055455675" lon="13.23853760189996"><ele>932.8</ele><time>2026-04-04T15:16:17Z</time></trkpt><trkpt lat="42.408355579844404" lon="13.238440045006758"><ele>934.4</ele><time>2026-04-04T15:16:18Z</time></trkpt><trkpt lat="42.40841614834171" lon="13.238373101442493"><ele>936.0</ele><time>2026-04-04T15:16:19Z</time></trkpt><trkpt lat="42.408489583381076" lon="13.238334860338146"><ele>936.0</ele><time>2026-04-04T15:16:20Z</time></trkpt><trkpt lat="42.40857739838413" lon="13.238318413398014"><ele>935.9999999999999</ele><time>2026-04-04T15:16:21Z</time></trkpt><trkpt lat="42.40867330014224" lon="13.238304127220106"><ele>935.9999999999999</ele><time>2026-04-04T15:16:22Z</time></trkpt><trkpt lat="42.4087690862715" lon="13.238278361952943"><ele>936.0</ele><time>2026-04-04T15:16:23Z</time></trkpt><trkpt lat="42.40885643371702" lon="13.238251061229155"><ele>936.0</ele><time>2026-04-04T15:16:24Z</time></trkpt><trkpt lat="42.40893802561331" lon="13.238240434481257"><ele>937.3333333333334</ele><time>2026-04-04T15:16:25Z</time></trkpt><trkpt lat="42.409004622805966" lon="13.238228778616719"><ele>938.6666666666667</ele><time>2026-04-04T15:16:26Z</time></trkpt><trkpt lat="42.40906503129548" lon="13.238179754466868"><ele>940.0</ele><time>2026-04-04T15:16:27Z</time></trkpt><trkpt lat="42.40911941627732" lon="13.238113582949046"><ele>941.3333333333334</ele><time>2026-04-04T15:16:27.999Z</time></trkpt><trkpt lat="42.40915744430061" lon="13.238031022428776"><ele>942.6666666666667</ele><time>2026-04-04T15:16:28.999Z</time></trkpt><trkpt lat="42.409184758660494" lon="13.237926216694122"><ele>944.0</ele><time>2026-04-04T15:16:29.999Z</time></trkpt><trkpt lat="42.40920562202341" lon="13.2377940484781"><ele>945.8000000000001</ele><time>2026-04-04T15:16:30.999Z</time></trkpt><trkpt lat="42.409236230540934" lon="13.237680329255873"><ele>947.6000000000001</ele><time>2026-04-04T15:16:31.999Z</time></trkpt><trkpt lat="42.40927748943066" lon="13.237574159416857"><ele>949.4</ele><time>2026-04-04T15:16:32.999Z</time></trkpt><trkpt lat="42.409307444839136" lon="13.237462315383295"><ele>951.2</ele><time>2026-04-04T15:16:33.999Z</time></trkpt><trkpt lat="42.40933668226067" lon="13.237372440510491"><ele>953.0</ele><time>2026-04-04T15:16:34.999Z</time></trkpt><trkpt lat="42.40939396847908" lon="13.237230083234067"><ele>953.3333333333334</ele><time>2026-04-04T15:16:36.999Z</time></trkpt><trkpt lat="42.40943011341963" lon="13.237073466792555"><ele>953.6666666666667</ele><time>2026-04-04T15:16:38.999Z</time></trkpt><trkpt lat="42.409453941042386" lon="13.236989984459493"><ele>954.0</ele><time>2026-04-04T15:16:39.999Z</time></trkpt><trkpt lat="42.409487748018925" lon="13.236914078108445"><ele>954.3333333333333</ele><time>2026-04-04T15:16:40.999Z</time></trkpt><trkpt lat="42.40953083885615" lon="13.236836009723774"><ele>954.6666666666666</ele><time>2026-04-04T15:16:41.999Z</time></trkpt><trkpt lat="42.40957445549777" lon="13.236754388131464"><ele>955.0</ele><time>2026-04-04T15:16:42.999Z</time></trkpt><trkpt lat="42.409624773011224" lon="13.236644069080452"><ele>958.1666666666666</ele><time>2026-04-04T15:16:43.999Z</time></trkpt><trkpt lat="42.40967839582885" lon="13.23655217354849"><ele>961.3333333333333</ele><time>2026-04-04T15:16:44.999Z</time></trkpt><trkpt lat="42.40972683594208" lon="13.23647364695919"><ele>964.5</ele><time>2026-04-04T15:16:45.999Z</time></trkpt><trkpt lat="42.40977792653281" lon="13.236402670309593"><ele>967.6666666666667</ele><time>2026-04-04T15:16:46.999Z</time></trkpt><trkpt lat="42.409832406560575" lon="13.236325497488535"><ele>970.8333333333334</ele><time>2026-04-04T15:16:47.999Z</time></trkpt><trkpt lat="42.409889754851214" lon="13.236255339827688"><ele>974.0</ele><time>2026-04-04T15:16:48.999Z</time></trkpt><trkpt lat="42.409945959602105" lon="13.236191984238861"><ele>974.0000000000001</ele><time>2026-04-04T15:16:49.999Z</time></trkpt><trkpt lat="42.41000204656622" lon="13.236126005809146"><ele>974.0</ele><time>2026-04-04T15:16:50.999Z</time></trkpt><trkpt lat="42.41005807236665" lon="13.236066308391106"><ele>974.0</ele><time>2026-04-04T15:16:51.999Z</time></trkpt><trkpt lat="42.41011309168307" lon="13.23601206698743"><ele>974.0</ele><time>2026-04-04T15:16:52.999Z</time></trkpt><trkpt lat="42.41016500639768" lon="13.23596058642071"><ele>974.0000000000001</ele><time>2026-04-04T15:16:53.999Z</time></trkpt><trkpt lat="42.41026287907084" lon="13.235888116609484"><ele>974.0</ele><time>2026-04-04T15:16:55.999Z</time></trkpt><trkpt lat="42.41032565247481" lon="13.235859812534034"><ele>974.0000000000001</ele><time>2026-04-04T15:16:56.999Z</time></trkpt><trkpt lat="42.41039476562638" lon="13.23584284798827"><ele>974.0</ele><time>2026-04-04T15:16:57.999Z</time></trkpt><trkpt lat="42.41046070979886" lon="13.235829592010727"><ele>974.0</ele><time>2026-04-04T15:16:58.999Z</time></trkpt><trkpt lat="42.41052631847414" lon="13.2358280646672"><ele>974.0</ele><time>2026-04-04T15:16:59.999Z</time></trkpt><trkpt lat="42.410589722801134" lon="13.235804287717054"><ele>974.0000000000001</ele><time>2026-04-04T15:17:00.999Z</time></trkpt><trkpt lat="42.41070277351607" lon="13.235754024432156"><ele>974.0</ele><time>2026-04-04T15:17:02.999Z</time></trkpt><trkpt lat="42.410806680888584" lon="13.23570488390457"><ele>975.5000000000001</ele><time>2026-04-04T15:17:04.999Z</time></trkpt><trkpt lat="42.410928802240655" lon="13.235685976810165"><ele>977.0</ele><time>2026-04-04T15:17:06.999Z</time></trkpt><trkpt lat="42.41098380356305" lon="13.235644123405445"><ele>978.5</ele><time>2026-04-04T15:17:07.999Z</time></trkpt><trkpt lat="42.41103595318341" lon="13.235586532228966"><ele>980.0</ele><time>2026-04-04T15:17:08.999Z</time></trkpt><trkpt lat="42.411093323688995" lon="13.235550173318519"><ele>981.5000000000001</ele><time>2026-04-04T15:17:09.999Z</time></trkpt><trkpt lat="42.41118556120013" lon="13.235497403256254"><ele>983.0</ele><time>2026-04-04T15:17:11.999Z</time></trkpt><trkpt lat="42.41126351960966" lon="13.235397445752529"><ele>983.0</ele><time>2026-04-04T15:17:13.999Z</time></trkpt><trkpt lat="42.41131184715345" lon="13.23524910330392"><ele>983.0</ele><time>2026-04-04T15:17:15.999Z</time></trkpt><trkpt lat="42.41133370186807" lon="13.235168155441434"><ele>983.0</ele><time>2026-04-04T15:17:16.999Z</time></trkpt><trkpt lat="42.41137479344257" lon="13.23500505460577"><ele>983.0</ele><time>2026-04-04T15:17:18.999Z</time></trkpt><trkpt lat="42.41143639000182" lon="13.234853306240096"><ele>983.0</ele><time>2026-04-04T15:17:20.999Z</time></trkpt><trkpt lat="42.41148542925726" lon="13.234794190506381"><ele>984.2857142857142</ele><time>2026-04-04T15:17:21.999Z</time></trkpt><trkpt lat="42.411539562751344" lon="13.234748135643578"><ele>985.5714285714286</ele><time>2026-04-04T15:17:22.999Z</time></trkpt><trkpt lat="42.411596148809615" lon="13.234674442472587"><ele>986.8571428571429</ele><time>2026-04-04T15:17:24.999Z</time></trkpt><trkpt lat="42.41165709127497" lon="13.234647610494987"><ele>988.1428571428571</ele><time>2026-04-04T15:19:21.999Z</time></trkpt><trkpt lat="42.411731129680724" lon="13.23464908870903"><ele>989.4285714285716</ele><time>2026-04-04T15:22:29Z</time></trkpt><trkpt lat="42.41181097897426" lon="13.234624824543417"><ele>990.7142857142858</ele><time>2026-04-04T15:22:30Z</time></trkpt><trkpt lat="42.41188317904398" lon="13.234565853544893"><ele>992.0</ele><time>2026-04-04T15:22:31Z</time></trkpt><trkpt lat="42.41198636662537" lon="13.234531894246905"><ele>992.0</ele><time>2026-04-04T15:22:33Z</time></trkpt><trkpt lat="42.412068215567196" lon="13.234491057577848"><ele>992.0</ele><time>2026-04-04T15:22:35Z</time></trkpt><trkpt lat="42.412166629738685" lon="13.234416574161548"><ele>992.0</ele><time>2026-04-04T15:22:37Z</time></trkpt><trkpt lat="42.41225979387174" lon="13.234303446001405"><ele>992.0</ele><time>2026-04-04T15:22:39Z</time></trkpt><trkpt lat="42.41231014911673" lon="13.234229679055836"><ele>992.0</ele><time>2026-04-04T15:22:40Z</time></trkpt><trkpt lat="42.41235294048806" lon="13.234165044643483"><ele>993.5000000000001</ele><time>2026-04-04T15:22:41Z</time></trkpt><trkpt lat="42.41239541070027" lon="13.234099779476196"><ele>995.0</ele><time>2026-04-04T15:22:42Z</time></trkpt><trkpt lat="42.41243732140035" lon="13.234031651923617"><ele>996.5</ele><time>2026-04-04T15:22:43Z</time></trkpt><trkpt lat="42.412478126341384" lon="13.233955313617587"><ele>998.0</ele><time>2026-04-04T15:22:44Z</time></trkpt><trkpt lat="42.41251952959249" lon="13.233870062350983"><ele>999.5000000000001</ele><time>2026-04-04T15:22:44.999Z</time></trkpt><trkpt lat="42.4125613976021" lon="13.233760804447508"><ele>1001.0</ele><time>2026-04-04T15:22:45.999Z</time></trkpt><trkpt lat="42.41260464314428" lon="13.233647974025406"><ele>1001.1666666666667</ele><time>2026-04-04T15:22:46.999Z</time></trkpt><trkpt lat="42.41263643734892" lon="13.233540208897962"><ele>1001.3333333333334</ele><time>2026-04-04T15:22:47.999Z</time></trkpt><trkpt lat="42.41265196498134" lon="13.233438376215263"><ele>1001.5</ele><time>2026-04-04T15:22:48.999Z</time></trkpt><trkpt lat="42.412641320489534" lon="13.233332501324364"><ele>1001.6666666666667</ele><time>2026-04-04T15:22:49.999Z</time></trkpt><trkpt lat="42.41263878092515" lon="13.233229630526667"><ele>1001.8333333333334</ele><time>2026-04-04T15:22:50.999Z</time></trkpt><trkpt lat="42.41265064417616" lon="13.233101656958041"><ele>1002.0</ele><time>2026-04-04T15:22:51.999Z</time></trkpt><trkpt lat="42.41268480307847" lon="13.232947173904304"><ele>1001.25</ele><time>2026-04-04T15:22:52.999Z</time></trkpt><trkpt lat="42.41273041001271" lon="13.232790602046785"><ele>1000.5</ele><time>2026-04-04T15:22:53.999Z</time></trkpt><trkpt lat="42.412780183558354" lon="13.232617020899355"><ele>999.75</ele><time>2026-04-04T15:22:54.999Z</time></trkpt><trkpt lat="42.41284651684106" lon="13.232421677110356"><ele>999.0</ele><time>2026-04-04T15:22:55.999Z</time></trkpt><trkpt lat="42.4129212960596" lon="13.232235004617689"><ele>1004.0</ele><time>2026-04-04T15:22:56.999Z</time></trkpt><trkpt lat="42.41299527515669" lon="13.232059410488315"><ele>1009.0</ele><time>2026-04-04T15:22:57.999Z</time></trkpt><trkpt lat="42.41304923562323" lon="13.231893867333204"><ele>1014.0</ele><time>2026-04-04T15:22:58.999Z</time></trkpt><trkpt lat="42.41310506935905" lon="13.231736872299878"><ele>1019.0</ele><time>2026-04-04T15:22:59.999Z</time></trkpt><trkpt lat="42.41317963508763" lon="13.231593266932121"><ele>1015.75</ele><time>2026-04-04T15:23:00.999Z</time></trkpt><trkpt lat="42.413267533788165" lon="13.231450464873392"><ele>1012.5</ele><time>2026-04-04T15:23:01.999Z</time></trkpt><trkpt lat="42.41334921775222" lon="13.23130535180575"><ele>1009.25</ele><time>2026-04-04T15:23:02.999Z</time></trkpt><trkpt lat="42.413423479520276" lon="13.231168938820328"><ele>1006.0</ele><time>2026-04-04T15:23:03.999Z</time></trkpt><trkpt lat="42.41349051147605" lon="13.231065837250204"><ele>1006.0</ele><time>2026-04-04T15:23:04.999Z</time></trkpt><trkpt lat="42.413551865205946" lon="13.230985849468361"><ele>1005.9999999999999</ele><time>2026-04-04T15:23:05.999Z</time></trkpt><trkpt lat="42.41360866116691" lon="13.230907303808317"><ele>1005.9999999999999</ele><time>2026-04-04T15:23:06.999Z</time></trkpt><trkpt lat="42.413679769658124" lon="13.230819410938864"><ele>1006.0</ele><time>2026-04-04T15:23:07.999Z</time></trkpt><trkpt lat="42.413776515188744" lon="13.230696545907728"><ele>1006.0</ele><time>2026-04-04T15:23:08.999Z</time></trkpt><trkpt lat="42.41387173055145" lon="13.230574678643324"><ele>1010.0</ele><time>2026-04-04T15:23:09.999Z</time></trkpt><trkpt lat="42.413956079766024" lon="13.230465159632024"><ele>1014.0</ele><time>2026-04-04T15:23:10.999Z</time></trkpt><trkpt lat="42.414030439062195" lon="13.230352866933712"><ele>1018.0</ele><time>2026-04-04T15:23:11.999Z</time></trkpt><trkpt lat="42.41411708649906" lon="13.23022645913215"><ele>1022.0</ele><time>2026-04-04T15:23:12.999Z</time></trkpt><trkpt lat="42.41420384644891" lon="13.230100880043933"><ele>1022.0</ele><time>2026-04-04T15:23:13.999Z</time></trkpt><trkpt lat="42.414303692410606" lon="13.229973069447997"><ele>1022.0</ele><time>2026-04-04T15:23:14.999Z</time></trkpt><trkpt lat="42.41440794890603" lon="13.229805875212914"><ele>1022.0</ele><time>2026-04-04T15:23:15.999Z</time></trkpt><trkpt lat="42.4144960441897" lon="13.22964320586411"><ele>1022.0</ele><time>2026-04-04T15:23:16.999Z</time></trkpt><trkpt lat="42.4145930871068" lon="13.229481801932614"><ele>1028.0</ele><time>2026-04-04T15:23:17.999Z</time></trkpt><trkpt lat="42.414694844792805" lon="13.229319616713337"><ele>1034.0</ele><time>2026-04-04T15:23:18.999Z</time></trkpt><trkpt lat="42.414807244206656" lon="13.229169753573856"><ele>1040.0</ele><time>2026-04-04T15:23:19.999Z</time></trkpt><trkpt lat="42.41489767261499" lon="13.229032627713794"><ele>1041.3333333333335</ele><time>2026-04-04T15:23:20.999Z</time></trkpt><trkpt lat="42.41497207770124" lon="13.228910483876643"><ele>1042.6666666666667</ele><time>2026-04-04T15:23:21.999Z</time></trkpt><trkpt lat="42.415030882150816" lon="13.228818451187905"><ele>1044.0</ele><time>2026-04-04T15:23:22.999Z</time></trkpt><trkpt lat="42.41507500608165" lon="13.228729195818124"><ele>1045.3333333333333</ele><time>2026-04-04T15:23:23.999Z</time></trkpt><trkpt lat="42.41512373317426" lon="13.228646225816714"><ele>1046.6666666666665</ele><time>2026-04-04T15:23:24.999Z</time></trkpt><trkpt lat="42.41517239835848" lon="13.228575384896356"><ele>1048.0</ele><time>2026-04-04T15:23:25.999Z</time></trkpt><trkpt lat="42.41522446486012" lon="13.228519561010936"><ele>1048.0</ele><time>2026-04-04T15:23:26.999Z</time></trkpt><trkpt lat="42.415273184269715" lon="13.228450526174935"><ele>1048.0</ele><time>2026-04-04T15:23:27.999Z</time></trkpt><trkpt lat="42.41531910674419" lon="13.22837144761934"><ele>1048.0</ele><time>2026-04-04T15:23:28.999Z</time></trkpt><trkpt lat="42.41536010384006" lon="13.228298590421867"><ele>1048.0</ele><time>2026-04-04T15:23:29.999Z</time></trkpt><trkpt lat="42.41545273051042" lon="13.228268101651041"><ele>1048.0</ele><time>2026-04-04T15:23:32.999Z</time></trkpt><trkpt lat="42.415549613061856" lon="13.228286579241939"><ele>1048.0</ele><time>2026-04-04T15:23:34.999Z</time></trkpt><trkpt lat="42.4156109485868" lon="13.228220109095739"><ele>1049.2</ele><time>2026-04-04T15:23:35.999Z</time></trkpt><trkpt lat="42.415664205973634" lon="13.22811445339258"><ele>1050.4</ele><time>2026-04-04T15:23:36.999Z</time></trkpt><trkpt lat="42.41570250519576" lon="13.227999632299214"><ele>1051.6000000000001</ele><time>2026-04-04T15:23:37.999Z</time></trkpt><trkpt lat="42.4157464261166" lon="13.2278811029993"><ele>1052.8</ele><time>2026-04-04T15:23:38.999Z</time></trkpt><trkpt lat="42.41580345170088" lon="13.227774689278784"><ele>1054.0</ele><time>2026-04-04T15:23:39.999Z</time></trkpt><trkpt lat="42.41587286801999" lon="13.227670455353564"><ele>1054.0</ele><time>2026-04-04T15:23:40.999Z</time></trkpt><trkpt lat="42.415937423378104" lon="13.227562156145028"><ele>1054.0</ele><time>2026-04-04T15:23:41.999Z</time></trkpt><trkpt lat="42.41597926268256" lon="13.227434001635384"><ele>1054.0</ele><time>2026-04-04T15:23:42.999Z</time></trkpt><trkpt lat="42.41599163601159" lon="13.227290235243839"><ele>1054.0</ele><time>2026-04-04T15:23:43.999Z</time></trkpt><trkpt lat="42.415975188031595" lon="13.22707785470637"><ele>1056.6666666666665</ele><time>2026-04-04T15:23:44.999Z</time></trkpt><trkpt lat="42.415975521744485" lon="13.226838139734214"><ele>1059.3333333333333</ele><time>2026-04-04T15:23:45.999Z</time></trkpt><trkpt lat="42.41600836742239" lon="13.22660418409746"><ele>1062.0</ele><time>2026-04-04T15:23:46.999Z</time></trkpt><trkpt lat="42.41601687437635" lon="13.22641006940442"><ele>1062.3333333333333</ele><time>2026-04-04T15:23:47.999Z</time></trkpt><trkpt lat="42.416012366140706" lon="13.226205346555663"><ele>1062.6666666666665</ele><time>2026-04-04T15:23:48.999Z</time></trkpt><trkpt lat="42.416031852968615" lon="13.226006748278774"><ele>1063.0</ele><time>2026-04-04T15:23:49.999Z</time></trkpt><trkpt lat="42.41606763938283" lon="13.225808642256089"><ele>1063.5</ele><time>2026-04-04T15:23:50.999Z</time></trkpt><trkpt lat="42.41606387835335" lon="13.225605570632183"><ele>1064.0</ele><time>2026-04-04T15:23:51.999Z</time></trkpt><trkpt lat="42.41603994065309" lon="13.225423486857348"><ele>1064.5</ele><time>2026-04-04T15:23:52.999Z</time></trkpt><trkpt lat="42.41602029301847" lon="13.225274028404092"><ele>1065.0</ele><time>2026-04-04T15:23:54Z</time></trkpt><trkpt lat="42.41600651285541" lon="13.225140980722134"><ele>1065.0</ele><time>2026-04-04T15:23:55Z</time></trkpt><trkpt lat="42.41599395031912" lon="13.22501300215172"><ele>1065.0</ele><time>2026-04-04T15:23:56Z</time></trkpt><trkpt lat="42.415979625449324" lon="13.224907465990041"><ele>1065.0</ele><time>2026-04-04T15:23:57Z</time></trkpt><trkpt lat="42.415954254724085" lon="13.224817022513378"><ele>1065.0</ele><time>2026-04-04T15:23:58Z</time></trkpt><trkpt lat="42.41592378547042" lon="13.224738896696309"><ele>1065.0</ele><time>2026-04-04T15:23:59Z</time></trkpt><trkpt lat="42.41589109720918" lon="13.224658291172123"><ele>1065.0</ele><time>2026-04-04T15:24:00Z</time></trkpt><trkpt lat="42.41588657449806" lon="13.2245671604557"><ele>1065.0</ele><time>2026-04-04T15:24:01Z</time></trkpt><trkpt lat="42.415906711523284" lon="13.224472898781205"><ele>1064.6666666666667</ele><time>2026-04-04T15:24:02Z</time></trkpt><trkpt lat="42.41595088964222" lon="13.224383278600845"><ele>1064.3333333333333</ele><time>2026-04-04T15:24:03Z</time></trkpt><trkpt lat="42.416018473442136" lon="13.224312573022937"><ele>1064.0</ele><time>2026-04-04T15:24:04Z</time></trkpt><trkpt lat="42.41608215529427" lon="13.224255020790622"><ele>1063.6666666666665</ele><time>2026-04-04T15:24:05Z</time></trkpt><trkpt lat="42.41614648479733" lon="13.22420181925714"><ele>1063.3333333333333</ele><time>2026-04-04T15:24:06Z</time></trkpt><trkpt lat="42.41620537256032" lon="13.224148366551068"><ele>1063.0</ele><time>2026-04-04T15:24:07Z</time></trkpt><trkpt lat="42.41624281298587" lon="13.224075377831758"><ele>1063.25</ele><time>2026-04-04T15:24:08Z</time></trkpt><trkpt lat="42.416290390825345" lon="13.2238980638802"><ele>1063.5</ele><time>2026-04-04T15:24:10Z</time></trkpt><trkpt lat="42.41634024048556" lon="13.223791127714081"><ele>1063.75</ele><time>2026-04-04T15:24:11Z</time></trkpt><trkpt lat="42.41641409434038" lon="13.223656622366615"><ele>1064.0</ele><time>2026-04-04T15:24:12Z</time></trkpt><trkpt lat="42.41648723812385" lon="13.223502997801576"><ele>1064.0</ele><time>2026-04-04T15:24:13Z</time></trkpt><trkpt lat="42.416552472809265" lon="13.223332258952938"><ele>1064.0</ele><time>2026-04-04T15:24:14Z</time></trkpt><trkpt lat="42.416609366695674" lon="13.223166542696907"><ele>1064.0</ele><time>2026-04-04T15:24:15Z</time></trkpt><trkpt lat="42.41666292516481" lon="13.222989167465414"><ele>1064.0</ele><time>2026-04-04T15:24:16Z</time></trkpt><trkpt lat="42.4167271433037" lon="13.222815778148627"><ele>1063.75</ele><time>2026-04-04T15:24:17Z</time></trkpt><trkpt lat="42.41680460432756" lon="13.22264844810616"><ele>1063.5</ele><time>2026-04-04T15:24:18Z</time></trkpt><trkpt lat="42.41689038231091" lon="13.222485505331294"><ele>1063.25</ele><time>2026-04-04T15:24:19Z</time></trkpt><trkpt lat="42.41697979151355" lon="13.22231954000025"><ele>1063.0</ele><time>2026-04-04T15:24:20Z</time></trkpt><trkpt lat="42.417072265447835" lon="13.222155073451827"><ele>1065.0</ele><time>2026-04-04T15:24:21Z</time></trkpt><trkpt lat="42.41717195956705" lon="13.222001687507273"><ele>1067.0</ele><time>2026-04-04T15:24:22Z</time></trkpt><trkpt lat="42.41727437663216" lon="13.221850858378156"><ele>1069.0</ele><time>2026-04-04T15:24:23Z</time></trkpt><trkpt lat="42.417383465249586" lon="13.221691698812439"><ele>1069.0</ele><time>2026-04-04T15:24:24Z</time></trkpt><trkpt lat="42.417482172331745" lon="13.221533191625515"><ele>1069.0</ele><time>2026-04-04T15:24:25Z</time></trkpt><trkpt lat="42.417573028599556" lon="13.221362097669996"><ele>1069.0</ele><time>2026-04-04T15:24:26Z</time></trkpt><trkpt lat="42.417652324950176" lon="13.221214555678216"><ele>1069.0</ele><time>2026-04-04T15:24:27Z</time></trkpt><trkpt lat="42.41772864158683" lon="13.221080445558108"><ele>1068.5</ele><time>2026-04-04T15:24:28Z</time></trkpt><trkpt lat="42.41782512373798" lon="13.220967879836843"><ele>1068.0</ele><time>2026-04-04T15:24:29Z</time></trkpt><trkpt lat="42.417948817222815" lon="13.220846519760824"><ele>1067.5</ele><time>2026-04-04T15:24:30Z</time></trkpt><trkpt lat="42.4180550660524" lon="13.220712791210465"><ele>1067.0</ele><time>2026-04-04T15:24:31Z</time></trkpt><trkpt lat="42.41816012827032" lon="13.220559766320783"><ele>1069.0</ele><time>2026-04-04T15:24:32Z</time></trkpt><trkpt lat="42.41825159172324" lon="13.220426766194592"><ele>1071.0</ele><time>2026-04-04T15:24:33Z</time></trkpt><trkpt lat="42.418338309948986" lon="13.220316278089136"><ele>1073.0</ele><time>2026-04-04T15:24:34Z</time></trkpt><trkpt lat="42.41841578242388" lon="13.220215909845214"><ele>1075.0</ele><time>2026-04-04T15:24:35Z</time></trkpt><trkpt lat="42.4185104261955" lon="13.220124903542771"><ele>1075.0</ele><time>2026-04-04T15:24:36Z</time></trkpt><trkpt lat="42.418607504865385" lon="13.220019358286141"><ele>1075.0</ele><time>2026-04-04T15:24:37Z</time></trkpt><trkpt lat="42.41870996996237" lon="13.219884465247484"><ele>1075.0</ele><time>2026-04-04T15:24:38Z</time></trkpt><trkpt lat="42.41880494544604" lon="13.219711625186584"><ele>1075.0</ele><time>2026-04-04T15:24:39Z</time></trkpt><trkpt lat="42.41889228797463" lon="13.219538749115895"><ele>1076.75</ele><time>2026-04-04T15:24:40Z</time></trkpt><trkpt lat="42.418947856465756" lon="13.21937993017201"><ele>1078.5</ele><time>2026-04-04T15:24:41Z</time></trkpt><trkpt lat="42.419024942189026" lon="13.219230869186516"><ele>1080.25</ele><time>2026-04-04T15:24:42Z</time></trkpt><trkpt lat="42.41912964982119" lon="13.219113432028704"><ele>1082.0</ele><time>2026-04-04T15:24:43Z</time></trkpt><trkpt lat="42.41923705687664" lon="13.219030286359628"><ele>1082.6</ele><time>2026-04-04T15:24:44Z</time></trkpt><trkpt lat="42.41933539135379" lon="13.218982683074012"><ele>1083.2</ele><time>2026-04-04T15:24:45Z</time></trkpt><trkpt lat="42.4194199270645" lon="13.218963812971282"><ele>1083.8</ele><time>2026-04-04T15:24:46Z</time></trkpt><trkpt lat="42.41949029001753" lon="13.218934890676774"><ele>1084.4</ele><time>2026-04-04T15:24:48Z</time></trkpt><trkpt lat="42.419523026513986" lon="13.218796246547795"><ele>1085.0</ele><time>2026-04-04T15:24:50Z</time></trkpt><trkpt lat="42.41952346923885" lon="13.218671569171933"><ele>1085.0</ele><time>2026-04-04T15:24:51Z</time></trkpt><trkpt lat="42.41953214773025" lon="13.21852673799299"><ele>1085.0</ele><time>2026-04-04T15:24:51.999Z</time></trkpt><trkpt lat="42.419551049987646" lon="13.218356810843305"><ele>1085.0</ele><time>2026-04-04T15:24:52.999Z</time></trkpt><trkpt lat="42.41958307738892" lon="13.218181364706098"><ele>1085.0</ele><time>2026-04-04T15:24:53.999Z</time></trkpt><trkpt lat="42.41963565542063" lon="13.217997087265125"><ele>1086.6666666666667</ele><time>2026-04-04T15:24:54.999Z</time></trkpt><trkpt lat="42.4196889790183" lon="13.217808505771048"><ele>1088.3333333333333</ele><time>2026-04-04T15:24:55.999Z</time></trkpt><trkpt lat="42.419727595904924" lon="13.217609782228504"><ele>1090.0</ele><time>2026-04-04T15:24:56.999Z</time></trkpt><trkpt lat="42.41975587583278" lon="13.21737812292691"><ele>1090.6666666666665</ele><time>2026-04-04T15:24:57.999Z</time></trkpt><trkpt lat="42.41977240794705" lon="13.217116994861708"><ele>1091.3333333333333</ele><time>2026-04-04T15:24:58.999Z</time></trkpt><trkpt lat="42.41977144449176" lon="13.216834916548567"><ele>1092.0</ele><time>2026-04-04T15:24:59.999Z</time></trkpt><trkpt lat="42.41979693072917" lon="13.216536027645715"><ele>1094.0</ele><time>2026-04-04T15:25:00.999Z</time></trkpt><trkpt lat="42.419840277458945" lon="13.216228579332144"><ele>1096.0</ele><time>2026-04-04T15:25:01.999Z</time></trkpt><trkpt lat="42.41987615516397" lon="13.215947496764167"><ele>1098.0</ele><time>2026-04-04T15:25:02.999Z</time></trkpt><trkpt lat="42.4198916201018" lon="13.21569549261818"><ele>1099.3333333333333</ele><time>2026-04-04T15:25:03.999Z</time></trkpt><trkpt lat="42.419894918454204" lon="13.215456918782767"><ele>1100.6666666666665</ele><time>2026-04-04T15:25:04.999Z</time></trkpt><trkpt lat="42.4198988139966" lon="13.215219872597409"><ele>1102.0</ele><time>2026-04-04T15:25:05.999Z</time></trkpt><trkpt lat="42.419893503331984" lon="13.21496949796109"><ele>1104.25</ele><time>2026-04-04T15:25:06.999Z</time></trkpt><trkpt lat="42.41987344755396" lon="13.214732911684296"><ele>1106.5</ele><time>2026-04-04T15:25:07.999Z</time></trkpt><trkpt lat="42.41986372685887" lon="13.21454538347389"><ele>1108.75</ele><time>2026-04-04T15:25:08.999Z</time></trkpt><trkpt lat="42.41988268454119" lon="13.21437540347945"><ele>1111.0</ele><time>2026-04-04T15:25:09.999Z</time></trkpt><trkpt lat="42.41990020829007" lon="13.214234724563374"><ele>1111.0</ele><time>2026-04-04T15:25:10.999Z</time></trkpt><trkpt lat="42.419917611063305" lon="13.214091395956933"><ele>1111.0</ele><time>2026-04-04T15:25:11.999Z</time></trkpt><trkpt lat="42.41993162537177" lon="13.213959205904997"><ele>1111.0</ele><time>2026-04-04T15:25:12.999Z</time></trkpt><trkpt lat="42.41993249277909" lon="13.213841733806216"><ele>1111.0</ele><time>2026-04-04T15:25:13.999Z</time></trkpt><trkpt lat="42.41993180542353" lon="13.213739570116267"><ele>1111.0</ele><time>2026-04-04T15:25:14.999Z</time></trkpt><trkpt lat="42.41998116920824" lon="13.213646006835335"><ele>1111.0</ele><time>2026-04-04T15:25:16.999Z</time></trkpt><trkpt lat="42.41991726447263" lon="13.21372776007246"><ele>1111.0</ele><time>2026-04-04T15:25:25.999Z</time></trkpt><trkpt lat="42.41992309851038" lon="13.213851034168158"><ele>1111.0</ele><time>2026-04-04T15:25:26.999Z</time></trkpt><trkpt lat="42.41993752305697" lon="13.21398584809978"><ele>1111.0</ele><time>2026-04-04T15:25:27.999Z</time></trkpt><trkpt lat="42.419937046640065" lon="13.214094936822406"><ele>1111.0</ele><time>2026-04-04T15:25:28.999Z</time></trkpt><trkpt lat="42.41992792838922" lon="13.214196557561833"><ele>1111.0</ele><time>2026-04-04T15:25:29.999Z</time></trkpt><trkpt lat="42.41991576330291" lon="13.214299027252679"><ele>1111.0</ele><time>2026-04-04T15:25:30.999Z</time></trkpt><trkpt lat="42.419907608840134" lon="13.214392587030591"><ele>1111.0</ele><time>2026-04-04T15:25:31.999Z</time></trkpt><trkpt lat="42.41990197788433" lon="13.214477659414612"><ele>1111.0</ele><time>2026-04-04T15:25:32.999Z</time></trkpt><trkpt lat="42.41987495273792" lon="13.214593800018084"><ele>1111.0</ele><time>2026-04-04T15:25:34.999Z</time></trkpt><trkpt lat="42.41979795612758" lon="13.214586755014947"><ele>1111.0</ele><time>2026-04-04T15:25:37.999Z</time></trkpt><trkpt lat="42.41972362875199" lon="13.214442156285864"><ele>1111.0</ele><time>2026-04-04T15:25:39.999Z</time></trkpt><trkpt lat="42.419687024525594" lon="13.214306831762869"><ele>1113.0</ele><time>2026-04-04T15:25:40.999Z</time></trkpt><trkpt lat="42.41962510291689" lon="13.214158099682638"><ele>1115.0</ele><time>2026-04-04T15:25:41.999Z</time></trkpt><trkpt lat="42.419547075097526" lon="13.214001835528347"><ele>1117.0</ele><time>2026-04-04T15:25:42.999Z</time></trkpt><trkpt lat="42.419445030495474" lon="13.21384880860008"><ele>1119.0</ele><time>2026-04-04T15:25:43.999Z</time></trkpt><trkpt lat="42.41933054507651" lon="13.213695907907416"><ele>1119.0</ele><time>2026-04-04T15:25:44.999Z</time></trkpt><trkpt lat="42.41923052133214" lon="13.213547662162387"><ele>1119.0</ele><time>2026-04-04T15:25:45.999Z</time></trkpt><trkpt lat="42.41916441027974" lon="13.213395032916775"><ele>1119.0</ele><time>2026-04-04T15:25:46.999Z</time></trkpt><trkpt lat="42.41912762787419" lon="13.213226746890781"><ele>1119.0</ele><time>2026-04-04T15:25:47.999Z</time></trkpt><trkpt lat="42.41913300666001" lon="13.213021363228187"><ele>1121.25</ele><time>2026-04-04T15:25:48.999Z</time></trkpt><trkpt lat="42.419137864770086" lon="13.212845184510845"><ele>1123.5</ele><time>2026-04-04T15:25:49.999Z</time></trkpt><trkpt lat="42.419152803329546" lon="13.212712163333814"><ele>1125.75</ele><time>2026-04-04T15:25:50.999Z</time></trkpt><trkpt lat="42.41921209191806" lon="13.21256312437616"><ele>1128.0</ele><time>2026-04-04T15:25:51.999Z</time></trkpt><trkpt lat="42.419250343495435" lon="13.212413957568248"><ele>1130.8</ele><time>2026-04-04T15:25:52.999Z</time></trkpt><trkpt lat="42.41925605630277" lon="13.212238863475841"><ele>1133.6</ele><time>2026-04-04T15:25:53.999Z</time></trkpt><trkpt lat="42.419276268889355" lon="13.212093668481527"><ele>1136.4</ele><time>2026-04-04T15:25:54.999Z</time></trkpt><trkpt lat="42.419324845325264" lon="13.211987817232986"><ele>1139.2</ele><time>2026-04-04T15:25:55.999Z</time></trkpt><trkpt lat="42.419395695603086" lon="13.211931363771527"><ele>1142.0</ele><time>2026-04-04T15:25:56.999Z</time></trkpt><trkpt lat="42.419485070004235" lon="13.211901320640433"><ele>1142.0</ele><time>2026-04-04T15:25:57.999Z</time></trkpt><trkpt lat="42.419576355496055" lon="13.211876506627627"><ele>1142.0</ele><time>2026-04-04T15:25:58.999Z</time></trkpt><trkpt lat="42.4196385005296" lon="13.211854291475328"><ele>1142.0</ele><time>2026-04-04T15:26:00Z</time></trkpt><trkpt lat="42.41970870556968" lon="13.211900289626257"><ele>1142.0</ele><time>2026-04-04T15:26:02Z</time></trkpt><trkpt lat="42.41974768659015" lon="13.211975099287821"><ele>1142.0</ele><time>2026-04-04T15:26:03Z</time></trkpt><trkpt lat="42.41981938122011" lon="13.21199201657078"><ele>1142.0</ele><time>2026-04-04T15:26:08Z</time></trkpt><trkpt lat="42.419848626195524" lon="13.211879726133407"><ele>1142.8333333333335</ele><time>2026-04-04T15:26:11Z</time></trkpt><trkpt lat="42.41989092351289" lon="13.21177076958931"><ele>1143.6666666666667</ele><time>2026-04-04T15:26:14Z</time></trkpt><trkpt lat="42.419933297749346" lon="13.211707637081664"><ele>1144.5</ele><time>2026-04-04T15:26:15Z</time></trkpt><trkpt lat="42.419950039407794" lon="13.211805385879513"><ele>1145.3333333333333</ele><time>2026-04-04T15:26:19Z</time></trkpt><trkpt lat="42.419929202004525" lon="13.211910220850635"><ele>1146.1666666666665</ele><time>2026-04-04T15:26:20Z</time></trkpt><trkpt lat="42.41995164323649" lon="13.21201540154991"><ele>1147.0</ele><time>2026-04-04T15:26:21Z</time></trkpt><trkpt lat="42.4200019338996" lon="13.212127173756656"><ele>1147.0</ele><time>2026-04-04T15:26:23Z</time></trkpt><trkpt lat="42.41998872731452" lon="13.212034684467044"><ele>1147.0</ele><time>2026-04-04T15:26:28Z</time></trkpt><trkpt lat="42.41992710447956" lon="13.21186591145169"><ele>1147.0</ele><time>2026-04-04T15:26:30Z</time></trkpt><trkpt lat="42.41992833530484" lon="13.211720258626526"><ele>1147.0</ele><time>2026-04-04T15:26:31Z</time></trkpt><trkpt lat="42.419948606717675" lon="13.211571981310312"><ele>1147.0</ele><time>2026-04-04T15:26:32Z</time></trkpt><trkpt lat="42.4199660019794" lon="13.211438017337857"><ele>1150.0</ele><time>2026-04-04T15:26:33Z</time></trkpt><trkpt lat="42.419946771736086" lon="13.211320276327044"><ele>1153.0</ele><time>2026-04-04T15:26:34Z</time></trkpt><trkpt lat="42.41987314313865" lon="13.21123284406862"><ele>1156.0</ele><time>2026-04-04T15:26:35Z</time></trkpt><trkpt lat="42.41975302707962" lon="13.211074928774345"><ele>1159.0</ele><time>2026-04-04T15:26:36Z</time></trkpt><trkpt lat="42.419652542413296" lon="13.210922778094748"><ele>1160.0</ele><time>2026-04-04T15:26:37Z</time></trkpt><trkpt lat="42.41958946805289" lon="13.210782050189858"><ele>1161.0</ele><time>2026-04-04T15:26:38Z</time></trkpt><trkpt lat="42.41956932940774" lon="13.210584935750985"><ele>1162.0</ele><time>2026-04-04T15:26:39Z</time></trkpt><trkpt lat="42.419563823105335" lon="13.21039806724024"><ele>1163.0</ele><time>2026-04-04T15:26:40Z</time></trkpt><trkpt lat="42.419566378828925" lon="13.210155895925904"><ele>1163.0</ele><time>2026-04-04T15:26:41Z</time></trkpt><trkpt lat="42.41955645669503" lon="13.209947094427095"><ele>1163.0</ele><time>2026-04-04T15:26:42Z</time></trkpt><trkpt lat="42.41950343349839" lon="13.20982608966006"><ele>1163.0</ele><time>2026-04-04T15:26:43Z</time></trkpt><trkpt lat="42.41942037265218" lon="13.209746844119872"><ele>1163.0</ele><time>2026-04-04T15:26:45Z</time></trkpt><trkpt lat="42.41937530054253" lon="13.209567474463496"><ele>1163.0</ele><time>2026-04-04T15:26:47Z</time></trkpt><trkpt lat="42.4193392784481" lon="13.209464805519449"><ele>1163.0</ele><time>2026-04-04T15:26:48Z</time></trkpt><trkpt lat="42.41932098835132" lon="13.209378549737309"><ele>1163.0</ele><time>2026-04-04T15:26:49Z</time></trkpt><trkpt lat="42.419304013487" lon="13.209291694310782"><ele>1163.0</ele><time>2026-04-04T15:26:50Z</time></trkpt><trkpt lat="42.419275212287694" lon="13.209203437288124"><ele>1163.0</ele><time>2026-04-04T15:26:51Z</time></trkpt><trkpt lat="42.41922967609348" lon="13.209093993644801"><ele>1163.0</ele><time>2026-04-04T15:26:52Z</time></trkpt><trkpt lat="42.41919839933528" lon="13.208973011414036"><ele>1161.6</ele><time>2026-04-04T15:26:53Z</time></trkpt><trkpt lat="42.419205426623456" lon="13.208838381680224"><ele>1160.1999999999998</ele><time>2026-04-04T15:26:54Z</time></trkpt><trkpt lat="42.41923728389778" lon="13.208677493588715"><ele>1158.8</ele><time>2026-04-04T15:26:55Z</time></trkpt><trkpt lat="42.41923787143104" lon="13.20852383938307"><ele>1157.3999999999999</ele><time>2026-04-04T15:26:55.999Z</time></trkpt><trkpt lat="42.41921728666391" lon="13.208385842719622"><ele>1156.0</ele><time>2026-04-04T15:26:56.999Z</time></trkpt><trkpt lat="42.41919401149129" lon="13.208239286301975"><ele>1152.75</ele><time>2026-04-04T15:26:57.999Z</time></trkpt><trkpt lat="42.419157927069435" lon="13.208093961076916"><ele>1149.5</ele><time>2026-04-04T15:26:58.999Z</time></trkpt><trkpt lat="42.41911748110806" lon="13.207943126074321"><ele>1146.25</ele><time>2026-04-04T15:26:59.999Z</time></trkpt><trkpt lat="42.419069903417736" lon="13.207783852546452"><ele>1143.0</ele><time>2026-04-04T15:27:00.999Z</time></trkpt><trkpt lat="42.419009398791964" lon="13.207628636072448"><ele>1143.0</ele><time>2026-04-04T15:27:01.999Z</time></trkpt><trkpt lat="42.418940457236204" lon="13.207463849301124"><ele>1143.0</ele><time>2026-04-04T15:27:02.999Z</time></trkpt><trkpt lat="42.41888456410374" lon="13.207301272145674"><ele>1143.0</ele><time>2026-04-04T15:27:03.999Z</time></trkpt><trkpt lat="42.41883508181049" lon="13.207120375305282"><ele>1143.0</ele><time>2026-04-04T15:27:04.999Z</time></trkpt><trkpt lat="42.41879416284307" lon="13.206929450549517"><ele>1140.25</ele><time>2026-04-04T15:27:05.999Z</time></trkpt><trkpt lat="42.41875601943121" lon="13.206740362020017"><ele>1137.5</ele><time>2026-04-04T15:27:06.999Z</time></trkpt><trkpt lat="42.41871500499019" lon="13.206552808763206"><ele>1134.75</ele><time>2026-04-04T15:27:07.999Z</time></trkpt><trkpt lat="42.418678888889986" lon="13.206377007148472"><ele>1132.0</ele><time>2026-04-04T15:27:08.999Z</time></trkpt><trkpt lat="42.418638171049544" lon="13.206204185734954"><ele>1130.75</ele><time>2026-04-04T15:27:09.999Z</time></trkpt><trkpt lat="42.41858650126528" lon="13.206040316271737"><ele>1129.5</ele><time>2026-04-04T15:27:10.999Z</time></trkpt><trkpt lat="42.41852423329964" lon="13.20588951520115"><ele>1128.25</ele><time>2026-04-04T15:27:11.999Z</time></trkpt><trkpt lat="42.41845048915474" lon="13.205746574675906"><ele>1127.0</ele><time>2026-04-04T15:27:12.999Z</time></trkpt><trkpt lat="42.4183843785847" lon="13.205580142981473"><ele>1125.75</ele><time>2026-04-04T15:27:13.999Z</time></trkpt><trkpt lat="42.418318322429805" lon="13.205411968992143"><ele>1124.5</ele><time>2026-04-04T15:27:14.999Z</time></trkpt><trkpt lat="42.41826124853443" lon="13.205259605155351"><ele>1123.25</ele><time>2026-04-04T15:27:15.999Z</time></trkpt><trkpt lat="42.41821482553893" lon="13.205112052233222"><ele>1122.0</ele><time>2026-04-04T15:27:16.999Z</time></trkpt><trkpt lat="42.41820121009609" lon="13.204956320692197"><ele>1121.25</ele><time>2026-04-04T15:27:17.999Z</time></trkpt><trkpt lat="42.418215798677934" lon="13.20478882106039"><ele>1120.5</ele><time>2026-04-04T15:27:18.999Z</time></trkpt><trkpt lat="42.41826650942986" lon="13.20460722324313"><ele>1119.75</ele><time>2026-04-04T15:27:19.999Z</time></trkpt><trkpt lat="42.4183384412134" lon="13.204423611592329"><ele>1119.0</ele><time>2026-04-04T15:27:20.999Z</time></trkpt><trkpt lat="42.41836940984766" lon="13.204254830227457"><ele>1119.0</ele><time>2026-04-04T15:27:21.999Z</time></trkpt><trkpt lat="42.41836815337784" lon="13.204096260686597"><ele>1119.0</ele><time>2026-04-04T15:27:22.999Z</time></trkpt><trkpt lat="42.418329048161795" lon="13.20393111497736"><ele>1119.0</ele><time>2026-04-04T15:27:23.999Z</time></trkpt><trkpt lat="42.418273522291415" lon="13.203746723782194"><ele>1119.0</ele><time>2026-04-04T15:27:24.999Z</time></trkpt><trkpt lat="42.41825481643558" lon="13.203541700342319"><ele>1118.75</ele><time>2026-04-04T15:27:25.999Z</time></trkpt><trkpt lat="42.41824883738214" lon="13.203355087262008"><ele>1118.5</ele><time>2026-04-04T15:27:26.999Z</time></trkpt><trkpt lat="42.41824230015803" lon="13.203183184224645"><ele>1118.25</ele><time>2026-04-04T15:27:27.999Z</time></trkpt><trkpt lat="42.41822312947899" lon="13.20303295078634"><ele>1118.0</ele><time>2026-04-04T15:27:28.999Z</time></trkpt><trkpt lat="42.41816672699286" lon="13.202889789247124"><ele>1118.25</ele><time>2026-04-04T15:27:29.999Z</time></trkpt><trkpt lat="42.41811121276726" lon="13.202731430524143"><ele>1118.5</ele><time>2026-04-04T15:27:30.999Z</time></trkpt><trkpt lat="42.41807357613757" lon="13.202547174169874"><ele>1118.75</ele><time>2026-04-04T15:27:31.999Z</time></trkpt><trkpt lat="42.41804610574299" lon="13.202364453834909"><ele>1119.0</ele><time>2026-04-04T15:27:32.999Z</time></trkpt><trkpt lat="42.41800164453769" lon="13.202197878920185"><ele>1119.6000000000001</ele><time>2026-04-04T15:27:33.999Z</time></trkpt><trkpt lat="42.41793603289625" lon="13.202056627679307"><ele>1120.2</ele><time>2026-04-04T15:27:34.999Z</time></trkpt><trkpt lat="42.41789849326641" lon="13.201914249475672"><ele>1120.8000000000002</ele><time>2026-04-04T15:27:35.999Z</time></trkpt><trkpt lat="42.41786300843881" lon="13.201771239942795"><ele>1121.4</ele><time>2026-04-04T15:27:36.999Z</time></trkpt><trkpt lat="42.41780742699676" lon="13.201666649469832"><ele>1122.0</ele><time>2026-04-04T15:27:37.999Z</time></trkpt><trkpt lat="42.41773669225622" lon="13.201552857358067"><ele>1122.0</ele><time>2026-04-04T15:27:38.999Z</time></trkpt><trkpt lat="42.41768668037609" lon="13.201395348635058"><ele>1122.0</ele><time>2026-04-04T15:27:39.999Z</time></trkpt><trkpt lat="42.417670656726976" lon="13.201191670503434"><ele>1122.0</ele><time>2026-04-04T15:27:40.999Z</time></trkpt><trkpt lat="42.417682999468596" lon="13.200993834559533"><ele>1122.0</ele><time>2026-04-04T15:27:41.999Z</time></trkpt><trkpt lat="42.41770466183044" lon="13.200806896188588"><ele>1122.2</ele><time>2026-04-04T15:27:42.999Z</time></trkpt><trkpt lat="42.41770287403727" lon="13.200659255583368"><ele>1122.4</ele><time>2026-04-04T15:27:43.999Z</time></trkpt><trkpt lat="42.417682212413375" lon="13.200525047550572"><ele>1122.6</ele><time>2026-04-04T15:27:44.999Z</time></trkpt><trkpt lat="42.41763869363499" lon="13.200401421021152"><ele>1122.8</ele><time>2026-04-04T15:27:45.999Z</time></trkpt><trkpt lat="42.417551503530134" lon="13.200297733599598"><ele>1123.0</ele><time>2026-04-04T15:27:46.999Z</time></trkpt><trkpt lat="42.41744844336724" lon="13.200231980311315"><ele>1123.0</ele><time>2026-04-04T15:27:47.999Z</time></trkpt><trkpt lat="42.41733974003374" lon="13.20020977030875"><ele>1123.0</ele><time>2026-04-04T15:27:48.999Z</time></trkpt><trkpt lat="42.41724044968696" lon="13.200209282270647"><ele>1123.0</ele><time>2026-04-04T15:27:49.999Z</time></trkpt><trkpt lat="42.41714820174703" lon="13.200158070416405"><ele>1123.0</ele><time>2026-04-04T15:27:50.999Z</time></trkpt><trkpt lat="42.41707897197675" lon="13.200040977104974"><ele>1123.0</ele><time>2026-04-04T15:27:51.999Z</time></trkpt><trkpt lat="42.41704812824489" lon="13.199868993089392"><ele>1123.8</ele><time>2026-04-04T15:27:52.999Z</time></trkpt><trkpt lat="42.417035062913925" lon="13.199698131210068"><ele>1124.6</ele><time>2026-04-04T15:27:53.999Z</time></trkpt><trkpt lat="42.41703384662099" lon="13.199586097968123"><ele>1125.4</ele><time>2026-04-04T15:27:54.999Z</time></trkpt><trkpt lat="42.417018319459686" lon="13.199450723293031"><ele>1126.2</ele><time>2026-04-04T15:27:56.999Z</time></trkpt><trkpt lat="42.41696759781321" lon="13.199359462646276"><ele>1127.0</ele><time>2026-04-04T15:27:57.999Z</time></trkpt><trkpt lat="42.416931831956084" lon="13.199282789580595"><ele>1127.0</ele><time>2026-04-04T15:27:58.999Z</time></trkpt><trkpt lat="42.41694043397715" lon="13.199155804298409"><ele>1127.0</ele><time>2026-04-04T15:28:02.999Z</time></trkpt><trkpt lat="42.416930898862184" lon="13.199071336393889"><ele>1127.0</ele><time>2026-04-04T15:28:03.999Z</time></trkpt><trkpt lat="42.41691062900411" lon="13.19896946514042"><ele>1127.0</ele><time>2026-04-04T15:28:04.999Z</time></trkpt><trkpt lat="42.416935245697616" lon="13.19881617013675"><ele>1127.0</ele><time>2026-04-04T15:28:07Z</time></trkpt><trkpt lat="42.416966997174775" lon="13.198697603794244"><ele>1127.0</ele><time>2026-04-04T15:28:09Z</time></trkpt><trkpt lat="42.41703970370551" lon="13.19870318646618"><ele>1127.0</ele><time>2026-04-04T15:28:11Z</time></trkpt><trkpt lat="42.41708547570073" lon="13.198846044512353"><ele>1127.0</ele><time>2026-04-04T15:28:13Z</time></trkpt><trkpt lat="42.417092465196106" lon="13.198951682426452"><ele>1127.0</ele><time>2026-04-04T15:28:14Z</time></trkpt><trkpt lat="42.41710608952899" lon="13.199056277918698"><ele>1127.0</ele><time>2026-04-04T15:28:15Z</time></trkpt><trkpt lat="42.4171134073794" lon="13.199209981842367"><ele>1127.0</ele><time>2026-04-04T15:28:17Z</time></trkpt><trkpt lat="42.41706527190463" lon="13.199344228810196"><ele>1127.0</ele><time>2026-04-04T15:28:19Z</time></trkpt><trkpt lat="42.41705100725885" lon="13.199439904774637"><ele>1127.0</ele><time>2026-04-04T15:28:21Z</time></trkpt><trkpt lat="42.417125083601945" lon="13.199400316926825"><ele>1127.0</ele><time>2026-04-04T15:28:23Z</time></trkpt><trkpt lat="42.41717141346598" lon="13.199320711447736"><ele>1127.0</ele><time>2026-04-04T15:28:24Z</time></trkpt><trkpt lat="42.417229042962965" lon="13.199219346156157"><ele>1127.0</ele><time>2026-04-04T15:28:25Z</time></trkpt><trkpt lat="42.41729862897351" lon="13.199113575663006"><ele>1127.0</ele><time>2026-04-04T15:28:26Z</time></trkpt><trkpt lat="42.417380525587056" lon="13.19899191713392"><ele>1126.25</ele><time>2026-04-04T15:28:27Z</time></trkpt><trkpt lat="42.4174729600503" lon="13.198860233044512"><ele>1125.5</ele><time>2026-04-04T15:28:28Z</time></trkpt><trkpt lat="42.41757370777323" lon="13.198724529484469"><ele>1124.75</ele><time>2026-04-04T15:28:29Z</time></trkpt><trkpt lat="42.41767535868858" lon="13.198586121452736"><ele>1124.0</ele><time>2026-04-04T15:28:30Z</time></trkpt><trkpt lat="42.41777826132374" lon="13.198461779421443"><ele>1124.0</ele><time>2026-04-04T15:28:31Z</time></trkpt><trkpt lat="42.41788356314804" lon="13.198347003444114"><ele>1124.0</ele><time>2026-04-04T15:28:32Z</time></trkpt><trkpt lat="42.418005116043325" lon="13.198237836091893"><ele>1124.0</ele><time>2026-04-04T15:28:33Z</time></trkpt><trkpt lat="42.4181366930933" lon="13.198139208076869"><ele>1124.0</ele><time>2026-04-04T15:28:34Z</time></trkpt><trkpt lat="42.41828355011212" lon="13.198053252056665"><ele>1119.6666666666667</ele><time>2026-04-04T15:28:35Z</time></trkpt><trkpt lat="42.41843352785043" lon="13.19796762749962"><ele>1115.3333333333333</ele><time>2026-04-04T15:28:36Z</time></trkpt><trkpt lat="42.41857455484771" lon="13.197894840482716"><ele>1111.0</ele><time>2026-04-04T15:28:37Z</time></trkpt><trkpt lat="42.41871327754528" lon="13.1978312090617"><ele>1109.75</ele><time>2026-04-04T15:28:38Z</time></trkpt><trkpt lat="42.41884449932295" lon="13.19776729276488"><ele>1108.5</ele><time>2026-04-04T15:28:39Z</time></trkpt><trkpt lat="42.41897059833141" lon="13.197703269254172"><ele>1107.25</ele><time>2026-04-04T15:28:40Z</time></trkpt><trkpt lat="42.41909033127524" lon="13.197638091262696"><ele>1106.0</ele><time>2026-04-04T15:28:41Z</time></trkpt><trkpt lat="42.41920389372723" lon="13.197573922157966"><ele>1106.0</ele><time>2026-04-04T15:28:42Z</time></trkpt><trkpt lat="42.41931500238122" lon="13.197513959682414"><ele>1106.0</ele><time>2026-04-04T15:28:43Z</time></trkpt><trkpt lat="42.419426588192245" lon="13.197460893845872"><ele>1106.0</ele><time>2026-04-04T15:28:44Z</time></trkpt><trkpt lat="42.41953602827143" lon="13.1974046276295"><ele>1106.0</ele><time>2026-04-04T15:28:45Z</time></trkpt><trkpt lat="42.41965134191109" lon="13.19732792798848"><ele>1105.25</ele><time>2026-04-04T15:28:46Z</time></trkpt><trkpt lat="42.419760522446175" lon="13.19721410898059"><ele>1104.5</ele><time>2026-04-04T15:28:47Z</time></trkpt><trkpt lat="42.419852795098016" lon="13.197070901395273"><ele>1103.75</ele><time>2026-04-04T15:28:48Z</time></trkpt><trkpt lat="42.4199311332248" lon="13.196906812503448"><ele>1103.0</ele><time>2026-04-04T15:28:49Z</time></trkpt><trkpt lat="42.42000201329325" lon="13.196748126261248"><ele>1103.0</ele><time>2026-04-04T15:28:50Z</time></trkpt><trkpt lat="42.42006983645182" lon="13.196599956078213"><ele>1103.0</ele><time>2026-04-04T15:28:51Z</time></trkpt><trkpt lat="42.42013971097159" lon="13.196454362614226"><ele>1103.0</ele><time>2026-04-04T15:28:52Z</time></trkpt><trkpt lat="42.42020668175288" lon="13.196302268745061"><ele>1103.0</ele><time>2026-04-04T15:28:53Z</time></trkpt><trkpt lat="42.42027235928628" lon="13.196154917564487"><ele>1102.25</ele><time>2026-04-04T15:28:54Z</time></trkpt><trkpt lat="42.42033724377283" lon="13.196011125079444"><ele>1101.5</ele><time>2026-04-04T15:28:55Z</time></trkpt><trkpt lat="42.42040882175943" lon="13.19586371745242"><ele>1100.75</ele><time>2026-04-04T15:28:56Z</time></trkpt><trkpt lat="42.42048736585005" lon="13.195718504289925"><ele>1100.0</ele><time>2026-04-04T15:28:57Z</time></trkpt><trkpt lat="42.4205784755061" lon="13.195582300872623"><ele>1099.25</ele><time>2026-04-04T15:28:58Z</time></trkpt><trkpt lat="42.42068321553104" lon="13.195459782151685"><ele>1098.5</ele><time>2026-04-04T15:28:59Z</time></trkpt><trkpt lat="42.42079966611118" lon="13.195349652548378"><ele>1097.75</ele><time>2026-04-04T15:29:00Z</time></trkpt><trkpt lat="42.420927759965316" lon="13.195259386515326"><ele>1097.0</ele><time>2026-04-04T15:29:01Z</time></trkpt><trkpt lat="42.42106901737437" lon="13.195184362579226"><ele>1097.0</ele><time>2026-04-04T15:29:02Z</time></trkpt><trkpt lat="42.421221645810135" lon="13.195123387207104"><ele>1097.0</ele><time>2026-04-04T15:29:02.999Z</time></trkpt><trkpt lat="42.42137602123777" lon="13.195078134502278"><ele>1097.0</ele><time>2026-04-04T15:29:03.999Z</time></trkpt><trkpt lat="42.42152488909823" lon="13.1950323369419"><ele>1097.0</ele><time>2026-04-04T15:29:04.999Z</time></trkpt><trkpt lat="42.42167587577261" lon="13.194974536128516"><ele>1097.0</ele><time>2026-04-04T15:29:05.999Z</time></trkpt><trkpt lat="42.421829739704634" lon="13.19491322886354"><ele>1097.0</ele><time>2026-04-04T15:29:06.999Z</time></trkpt><trkpt lat="42.42198517910889" lon="13.194851124251242"><ele>1095.6666666666667</ele><time>2026-04-04T15:29:07.999Z</time></trkpt><trkpt lat="42.422138654497424" lon="13.194769923038203"><ele>1094.3333333333333</ele><time>2026-04-04T15:29:08.999Z</time></trkpt><trkpt lat="42.42228962565173" lon="13.194677160862009"><ele>1093.0</ele><time>2026-04-04T15:29:09.999Z</time></trkpt><trkpt lat="42.42244045801626" lon="13.194575567501435"><ele>1091.6666666666665</ele><time>2026-04-04T15:29:10.999Z</time></trkpt><trkpt lat="42.42258949518277" lon="13.194470209533831"><ele>1090.3333333333333</ele><time>2026-04-04T15:29:11.999Z</time></trkpt><trkpt lat="42.422733922346964" lon="13.194365347157285"><ele>1089.0</ele><time>2026-04-04T15:29:12.999Z</time></trkpt><trkpt lat="42.42287909165386" lon="13.19427234965261"><ele>1087.6666666666667</ele><time>2026-04-04T15:29:13.999Z</time></trkpt><trkpt lat="42.42302881044458" lon="13.19419204704582"><ele>1086.3333333333335</ele><time>2026-04-04T15:29:14.999Z</time></trkpt><trkpt lat="42.42318176121342" lon="13.194130723728904"><ele>1085.0</ele><time>2026-04-04T15:29:15.999Z</time></trkpt><trkpt lat="42.423330906987005" lon="13.194081414049375"><ele>1085.0</ele><time>2026-04-04T15:29:16.999Z</time></trkpt><trkpt lat="42.423481915378716" lon="13.194036266902849"><ele>1085.0</ele><time>2026-04-04T15:29:17.999Z</time></trkpt><trkpt lat="42.42363629825563" lon="13.19399327730904"><ele>1085.0</ele><time>2026-04-04T15:29:18.999Z</time></trkpt><trkpt lat="42.42378878905227" lon="13.193957669264433"><ele>1085.0</ele><time>2026-04-04T15:29:19.999Z</time></trkpt><trkpt lat="42.42393851892749" lon="13.193920768128736"><ele>1085.0</ele><time>2026-04-04T15:29:20.999Z</time></trkpt><trkpt lat="42.42408670193777" lon="13.193881084593132"><ele>1085.0</ele><time>2026-04-04T15:29:21.999Z</time></trkpt><trkpt lat="42.4242362488063" lon="13.193826758381247"><ele>1085.0</ele><time>2026-04-04T15:29:22.999Z</time></trkpt><trkpt lat="42.4243834464977" lon="13.1937564587321"><ele>1085.0</ele><time>2026-04-04T15:29:23.999Z</time></trkpt><trkpt lat="42.424526169577106" lon="13.193659301432994"><ele>1085.0</ele><time>2026-04-04T15:29:24.999Z</time></trkpt><trkpt lat="42.424658643947055" lon="13.193528901465028"><ele>1082.6666666666667</ele><time>2026-04-04T15:29:25.999Z</time></trkpt><trkpt lat="42.42478919743204" lon="13.193384050851645"><ele>1080.3333333333333</ele><time>2026-04-04T15:29:26.999Z</time></trkpt><trkpt lat="42.42491507628534" lon="13.193236074036747"><ele>1078.0</ele><time>2026-04-04T15:29:27.999Z</time></trkpt><trkpt lat="42.42503944919385" lon="13.193078776056549"><ele>1078.0</ele><time>2026-04-04T15:29:28.999Z</time></trkpt><trkpt lat="42.42515623978951" lon="13.192908376538947"><ele>1078.0</ele><time>2026-04-04T15:29:29.999Z</time></trkpt><trkpt lat="42.425263256050854" lon="13.192725062511142"><ele>1078.0</ele><time>2026-04-04T15:29:30.999Z</time></trkpt><trkpt lat="42.42537522231158" lon="13.192542165868145"><ele>1075.3333333333333</ele><time>2026-04-04T15:29:31.999Z</time></trkpt><trkpt lat="42.42549443762275" lon="13.192362872921644"><ele>1072.6666666666667</ele><time>2026-04-04T15:29:32.999Z</time></trkpt><trkpt lat="42.425621655794835" lon="13.192195036326817"><ele>1070.0</ele><time>2026-04-04T15:29:33.999Z</time></trkpt><trkpt lat="42.425746922790516" lon="13.192026473865438"><ele>1069.3333333333335</ele><time>2026-04-04T15:29:34.999Z</time></trkpt><trkpt lat="42.42587475272378" lon="13.191846960823211"><ele>1068.6666666666667</ele><time>2026-04-04T15:29:35.999Z</time></trkpt><trkpt lat="42.42600253478361" lon="13.191667505244952"><ele>1068.0</ele><time>2026-04-04T15:29:36.999Z</time></trkpt><trkpt lat="42.426131028819924" lon="13.19149199283336"><ele>1066.3333333333333</ele><time>2026-04-04T15:29:37.999Z</time></trkpt><trkpt lat="42.42625952587873" lon="13.191310678341196"><ele>1064.6666666666665</ele><time>2026-04-04T15:29:38.999Z</time></trkpt><trkpt lat="42.426378185664284" lon="13.19115122057529"><ele>1063.0</ele><time>2026-04-04T15:29:39.999Z</time></trkpt><trkpt lat="42.426488838200655" lon="13.190983336585193"><ele>1062.6666666666665</ele><time>2026-04-04T15:29:40.999Z</time></trkpt><trkpt lat="42.42659480710003" lon="13.190792270670993"><ele>1062.3333333333333</ele><time>2026-04-04T15:29:41.999Z</time></trkpt><trkpt lat="42.42668376727108" lon="13.19060339221938"><ele>1062.0</ele><time>2026-04-04T15:29:42.999Z</time></trkpt><trkpt lat="42.42676586106435" lon="13.190402797693277"><ele>1060.6666666666667</ele><time>2026-04-04T15:29:43.999Z</time></trkpt><trkpt lat="42.42683459254643" lon="13.190180090278195"><ele>1059.3333333333335</ele><time>2026-04-04T15:29:44.999Z</time></trkpt><trkpt lat="42.4268945393278" lon="13.189940975446788"><ele>1058.0</ele><time>2026-04-04T15:29:45.999Z</time></trkpt><trkpt lat="42.42694033845358" lon="13.189677910049552"><ele>1056.0</ele><time>2026-04-04T15:29:46.999Z</time></trkpt><trkpt lat="42.42699334453366" lon="13.18942140662386"><ele>1054.0</ele><time>2026-04-04T15:29:47.999Z</time></trkpt><trkpt lat="42.42704434069879" lon="13.189162858799692"><ele>1052.0</ele><time>2026-04-04T15:29:48.999Z</time></trkpt><trkpt lat="42.427099889133686" lon="13.188906493960664"><ele>1050.6666666666667</ele><time>2026-04-04T15:29:49.999Z</time></trkpt><trkpt lat="42.42716120270849" lon="13.188655617387758"><ele>1049.3333333333333</ele><time>2026-04-04T15:29:50.999Z</time></trkpt><trkpt lat="42.42722930646548" lon="13.188412457958158"><ele>1048.0</ele><time>2026-04-04T15:29:51.999Z</time></trkpt><trkpt lat="42.42730113564783" lon="13.1881676903204"><ele>1048.0</ele><time>2026-04-04T15:29:52.999Z</time></trkpt><trkpt lat="42.42737231535423" lon="13.187942087095903"><ele>1048.0</ele><time>2026-04-04T15:29:53.999Z</time></trkpt><trkpt lat="42.42744047812034" lon="13.187723768883668"><ele>1048.0</ele><time>2026-04-04T15:29:54.999Z</time></trkpt><trkpt lat="42.42750876912725" lon="13.187509520306785"><ele>1047.0</ele><time>2026-04-04T15:29:55.999Z</time></trkpt><trkpt lat="42.42757627696249" lon="13.18730026447268"><ele>1046.0</ele><time>2026-04-04T15:29:56.999Z</time></trkpt><trkpt lat="42.4276423931337" lon="13.187092906323151"><ele>1045.0</ele><time>2026-04-04T15:29:57.999Z</time></trkpt><trkpt lat="42.42770332764267" lon="13.186897893522717"><ele>1045.0</ele><time>2026-04-04T15:29:58.999Z</time></trkpt><trkpt lat="42.427762836034695" lon="13.18671411805244"><ele>1045.0</ele><time>2026-04-04T15:29:59.999Z</time></trkpt><trkpt lat="42.42782656940518" lon="13.186545585398154"><ele>1045.0</ele><time>2026-04-04T15:30:00.999Z</time></trkpt><trkpt lat="42.427887928267715" lon="13.18638847906024"><ele>1045.0</ele><time>2026-04-04T15:30:01.999Z</time></trkpt><trkpt lat="42.427945792574555" lon="13.186237440534244"><ele>1043.5</ele><time>2026-04-04T15:30:02.999Z</time></trkpt><trkpt lat="42.42800259530943" lon="13.186097295745531"><ele>1042.0</ele><time>2026-04-04T15:30:03.999Z</time></trkpt><trkpt lat="42.428056384185005" lon="13.18596566009636"><ele>1040.5</ele><time>2026-04-04T15:30:04.999Z</time></trkpt><trkpt lat="42.428112704581984" lon="13.18583459637376"><ele>1039.0</ele><time>2026-04-04T15:30:05.999Z</time></trkpt><trkpt lat="42.42817673078897" lon="13.185685918482546"><ele>1038.3333333333333</ele><time>2026-04-04T15:30:06.999Z</time></trkpt><trkpt lat="42.42824889552329" lon="13.18551825563631"><ele>1037.6666666666667</ele><time>2026-04-04T15:30:07.999Z</time></trkpt><trkpt lat="42.42833072998646" lon="13.185340201949868"><ele>1037.0</ele><time>2026-04-04T15:30:08.999Z</time></trkpt><trkpt lat="42.42842140794636" lon="13.185159320736311"><ele>1037.0</ele><time>2026-04-04T15:30:09.999Z</time></trkpt><trkpt lat="42.42851843556513" lon="13.184976526286405"><ele>1037.0</ele><time>2026-04-04T15:30:10.999Z</time></trkpt><trkpt lat="42.42862792065917" lon="13.184790046180561"><ele>1037.0</ele><time>2026-04-04T15:30:12Z</time></trkpt><trkpt lat="42.42874502696328" lon="13.184605488059496"><ele>1036.3333333333335</ele><time>2026-04-04T15:30:13Z</time></trkpt><trkpt lat="42.42886399719048" lon="13.18441522839921"><ele>1035.6666666666667</ele><time>2026-04-04T15:30:14Z</time></trkpt><trkpt lat="42.4289857514223" lon="13.184222931218224"><ele>1035.0</ele><time>2026-04-04T15:30:15Z</time></trkpt><trkpt lat="42.42911063947336" lon="13.184028734932594"><ele>1035.3333333333333</ele><time>2026-04-04T15:30:16Z</time></trkpt><trkpt lat="42.42923672795911" lon="13.183832373968382"><ele>1035.6666666666665</ele><time>2026-04-04T15:30:17Z</time></trkpt><trkpt lat="42.42936573537605" lon="13.183632979557242"><ele>1036.0</ele><time>2026-04-04T15:30:18Z</time></trkpt><trkpt lat="42.42950311932679" lon="13.183440659025518"><ele>1035.3333333333333</ele><time>2026-04-04T15:30:19Z</time></trkpt><trkpt lat="42.429660958976505" lon="13.18326226665933"><ele>1034.6666666666667</ele><time>2026-04-04T15:30:20Z</time></trkpt><trkpt lat="42.42983715358898" lon="13.183102359715805"><ele>1034.0</ele><time>2026-04-04T15:30:21Z</time></trkpt><trkpt lat="42.43002529462856" lon="13.182960593198167"><ele>1034.0</ele><time>2026-04-04T15:30:22Z</time></trkpt><trkpt lat="42.43021334115592" lon="13.182831739361022"><ele>1034.0</ele><time>2026-04-04T15:30:23Z</time></trkpt><trkpt lat="42.4303893568313" lon="13.182704435574003"><ele>1034.0</ele><time>2026-04-04T15:30:24Z</time></trkpt><trkpt lat="42.43055821051002" lon="13.182569054145482"><ele>1033.3333333333335</ele><time>2026-04-04T15:30:25Z</time></trkpt><trkpt lat="42.430718339732465" lon="13.182424480168228"><ele>1032.6666666666667</ele><time>2026-04-04T15:30:26Z</time></trkpt><trkpt lat="42.430870838655636" lon="13.18225764265759"><ele>1032.0</ele><time>2026-04-04T15:30:27Z</time></trkpt><trkpt lat="42.43101030863496" lon="13.182073627003493"><ele>1032.3333333333333</ele><time>2026-04-04T15:30:28Z</time></trkpt><trkpt lat="42.431137393894836" lon="13.181873176107672"><ele>1032.6666666666665</ele><time>2026-04-04T15:30:29Z</time></trkpt><trkpt lat="42.431263271229035" lon="13.181665608397829"><ele>1033.0</ele><time>2026-04-04T15:30:30Z</time></trkpt><trkpt lat="42.43138326880828" lon="13.181447393430405"><ele>1033.0</ele><time>2026-04-04T15:30:31Z</time></trkpt><trkpt lat="42.431501247749814" lon="13.181224191733893"><ele>1033.0</ele><time>2026-04-04T15:30:32Z</time></trkpt><trkpt lat="42.43161851940268" lon="13.18099419948646"><ele>1033.0</ele><time>2026-04-04T15:30:33Z</time></trkpt><trkpt lat="42.431732744558595" lon="13.180762975597135"><ele>1033.3333333333333</ele><time>2026-04-04T15:30:34Z</time></trkpt><trkpt lat="42.43183277078965" lon="13.180555686829184"><ele>1033.6666666666667</ele><time>2026-04-04T15:30:35Z</time></trkpt><trkpt lat="42.43192680865899" lon="13.180361511300307"><ele>1034.0</ele><time>2026-04-04T15:30:36Z</time></trkpt><trkpt lat="42.43201846828049" lon="13.18018242703455"><ele>1034.0</ele><time>2026-04-04T15:30:37Z</time></trkpt><trkpt lat="42.43209960240027" lon="13.180009349494101"><ele>1034.0</ele><time>2026-04-04T15:30:38Z</time></trkpt><trkpt lat="42.43217782885636" lon="13.179845255411541"><ele>1034.0</ele><time>2026-04-04T15:30:39Z</time></trkpt><trkpt lat="42.43225534196236" lon="13.179699995341617"><ele>1034.0</ele><time>2026-04-04T15:30:40Z</time></trkpt><trkpt lat="42.43232686007898" lon="13.179567658028615"><ele>1033.3333333333335</ele><time>2026-04-04T15:30:41Z</time></trkpt><trkpt lat="42.4323935416471" lon="13.179441907073874"><ele>1032.6666666666667</ele><time>2026-04-04T15:30:42Z</time></trkpt><trkpt lat="42.4324490750984" lon="13.179334135717035"><ele>1032.0</ele><time>2026-04-04T15:30:43Z</time></trkpt><trkpt lat="42.432491559174" lon="13.179249810253525"><ele>1031.3333333333333</ele><time>2026-04-04T15:30:44Z</time></trkpt><trkpt lat="42.432529968987815" lon="13.17918162192992"><ele>1030.6666666666665</ele><time>2026-04-04T15:30:45Z</time></trkpt><trkpt lat="42.43258748192272" lon="13.179086533136092"><ele>1030.0</ele><time>2026-04-04T15:32:03.999Z</time></trkpt><trkpt lat="42.43262714774552" lon="13.178921814095975"><ele>1029.75</ele><time>2026-04-04T15:32:05.999Z</time></trkpt><trkpt lat="42.432674048930224" lon="13.178810257914026"><ele>1029.5</ele><time>2026-04-04T15:32:06.999Z</time></trkpt><trkpt lat="42.43274297844232" lon="13.178689999156612"><ele>1029.25</ele><time>2026-04-04T15:32:07.999Z</time></trkpt><trkpt lat="42.432818719937266" lon="13.178553466048415"><ele>1029.0</ele><time>2026-04-04T15:32:08.999Z</time></trkpt><trkpt lat="42.43289467559722" lon="13.178393129761469"><ele>1029.0</ele><time>2026-04-04T15:32:09.999Z</time></trkpt><trkpt lat="42.432970955561146" lon="13.178225245735574"><ele>1029.0</ele><time>2026-04-04T15:32:10.999Z</time></trkpt><trkpt lat="42.433053190432595" lon="13.178052237785456"><ele>1029.0</ele><time>2026-04-04T15:32:11.999Z</time></trkpt><trkpt lat="42.43313675277002" lon="13.177880783160177"><ele>1029.0</ele><time>2026-04-04T15:32:12.999Z</time></trkpt><trkpt lat="42.43321977669896" lon="13.177708885666476"><ele>1028.75</ele><time>2026-04-04T15:32:13.999Z</time></trkpt><trkpt lat="42.433303031944405" lon="13.177536625928644"><ele>1028.5</ele><time>2026-04-04T15:32:14.999Z</time></trkpt><trkpt lat="42.43338583363451" lon="13.177366290909948"><ele>1028.25</ele><time>2026-04-04T15:32:15.999Z</time></trkpt><trkpt lat="42.43347667438876" lon="13.177209933953296"><ele>1028.0</ele><time>2026-04-04T15:32:16.999Z</time></trkpt><trkpt lat="42.433568325547704" lon="13.17706118566032"><ele>1028.0</ele><time>2026-04-04T15:32:18Z</time></trkpt><trkpt lat="42.43365861296226" lon="13.176897426616186"><ele>1028.0</ele><time>2026-04-04T15:32:19Z</time></trkpt><trkpt lat="42.4337509492363" lon="13.176710894675173"><ele>1028.0</ele><time>2026-04-04T15:32:20Z</time></trkpt><trkpt lat="42.433833732545125" lon="13.176512402400586"><ele>1025.6666666666667</ele><time>2026-04-04T15:32:21Z</time></trkpt><trkpt lat="42.43390966568597" lon="13.176295129684368"><ele>1023.3333333333333</ele><time>2026-04-04T15:32:22Z</time></trkpt><trkpt lat="42.43397863894643" lon="13.176062751739906"><ele>1021.0</ele><time>2026-04-04T15:32:23Z</time></trkpt><trkpt lat="42.43404446996458" lon="13.175830021746558"><ele>1021.3333333333333</ele><time>2026-04-04T15:32:24Z</time></trkpt><trkpt lat="42.43410903261991" lon="13.17559724950193"><ele>1021.6666666666667</ele><time>2026-04-04T15:32:25Z</time></trkpt><trkpt lat="42.43418267769183" lon="13.17536965701948"><ele>1022.0</ele><time>2026-04-04T15:32:26Z</time></trkpt><trkpt lat="42.434280246817494" lon="13.175148951250796"><ele>1022.0</ele><time>2026-04-04T15:32:27Z</time></trkpt><trkpt lat="42.43440986475599" lon="13.174955170024136"><ele>1022.0</ele><time>2026-04-04T15:32:28Z</time></trkpt><trkpt lat="42.43456187632911" lon="13.174791710078123"><ele>1022.0</ele><time>2026-04-04T15:32:29Z</time></trkpt><trkpt lat="42.43472310276532" lon="13.174639213909773"><ele>1022.3333333333334</ele><time>2026-04-04T15:32:30Z</time></trkpt><trkpt lat="42.43488218226876" lon="13.174486795432163"><ele>1022.6666666666667</ele><time>2026-04-04T15:32:31Z</time></trkpt><trkpt lat="42.43504099374038" lon="13.174333180732953"><ele>1023.0</ele><time>2026-04-04T15:32:32Z</time></trkpt><trkpt lat="42.43521031415527" lon="13.174173901370816"><ele>1023.0</ele><time>2026-04-04T15:32:33Z</time></trkpt><trkpt lat="42.435381210062104" lon="13.174011385731415"><ele>1023.0</ele><time>2026-04-04T15:32:34Z</time></trkpt><trkpt lat="42.43554740646399" lon="13.173847929071691"><ele>1023.0</ele><time>2026-04-04T15:32:35Z</time></trkpt><trkpt lat="42.43571211448358" lon="13.17368694413103"><ele>1022.6666666666667</ele><time>2026-04-04T15:32:36Z</time></trkpt><trkpt lat="42.435872543408074" lon="13.17352708210973"><ele>1022.3333333333334</ele><time>2026-04-04T15:32:37Z</time></trkpt><trkpt lat="42.43602898575326" lon="13.173365504951773"><ele>1022.0</ele><time>2026-04-04T15:32:38Z</time></trkpt><trkpt lat="42.43618219924151" lon="13.17320400015957"><ele>1022.3333333333334</ele><time>2026-04-04T15:32:39Z</time></trkpt><trkpt lat="42.43633100228236" lon="13.173039924250197"><ele>1022.6666666666667</ele><time>2026-04-04T15:32:40Z</time></trkpt><trkpt lat="42.436476889742394" lon="13.172879218440874"><ele>1023.0</ele><time>2026-04-04T15:32:41Z</time></trkpt><trkpt lat="42.436621588228434" lon="13.172721364995917"><ele>1023.0</ele><time>2026-04-04T15:32:42Z</time></trkpt><trkpt lat="42.436764752623525" lon="13.172564704362669"><ele>1023.0</ele><time>2026-04-04T15:32:43Z</time></trkpt><trkpt lat="42.436910715565375" lon="13.172405097744534"><ele>1023.0</ele><time>2026-04-04T15:32:44Z</time></trkpt><trkpt lat="42.43705150048974" lon="13.172254142681787"><ele>1022.3333333333333</ele><time>2026-04-04T15:32:45Z</time></trkpt><trkpt lat="42.437184983043736" lon="13.172110643883942"><ele>1021.6666666666666</ele><time>2026-04-04T15:32:46Z</time></trkpt><trkpt lat="42.43730729715512" lon="13.171981088906273"><ele>1021.0</ele><time>2026-04-04T15:32:47Z</time></trkpt><trkpt lat="42.43741835752618" lon="13.17186818526373"><ele>1021.0</ele><time>2026-04-04T15:32:48Z</time></trkpt><trkpt lat="42.43751173278476" lon="13.171779493197823"><ele>1020.9999999999999</ele><time>2026-04-04T15:32:49Z</time></trkpt><trkpt lat="42.4375969851046" lon="13.17171822049374"><ele>1020.9999999999999</ele><time>2026-04-04T15:32:50Z</time></trkpt><trkpt lat="42.43768504274618" lon="13.171687572531367"><ele>1021.0</ele><time>2026-04-04T15:32:51Z</time></trkpt><trkpt lat="42.43776005052104" lon="13.171671788420358"><ele>1021.0</ele><time>2026-04-04T15:32:52Z</time></trkpt><trkpt lat="42.43782122405456" lon="13.171611939123341"><ele>1021.3333333333333</ele><time>2026-04-04T15:32:54Z</time></trkpt><trkpt lat="42.43780768662553" lon="13.171508750041284"><ele>1021.6666666666666</ele><time>2026-04-04T15:32:56Z</time></trkpt><trkpt lat="42.437767270853875" lon="13.171433010664646"><ele>1022.0</ele><time>2026-04-04T15:32:57Z</time></trkpt><trkpt lat="42.43772415785631" lon="13.171350335417166"><ele>1022.3333333333333</ele><time>2026-04-04T15:32:58Z</time></trkpt><trkpt lat="42.43767680828637" lon="13.17122567476316"><ele>1022.6666666666666</ele><time>2026-04-04T15:32:59Z</time></trkpt><trkpt lat="42.4376274395092" lon="13.171077611800486"><ele>1023.0</ele><time>2026-04-04T15:33:00Z</time></trkpt><trkpt lat="42.437549975328956" lon="13.170888992806466"><ele>1024.0</ele><time>2026-04-04T15:33:01Z</time></trkpt><trkpt lat="42.43744752520698" lon="13.170679226004854"><ele>1025.0</ele><time>2026-04-04T15:33:02Z</time></trkpt><trkpt lat="42.4373277780903" lon="13.170428355787736"><ele>1026.0</ele><time>2026-04-04T15:33:03Z</time></trkpt><trkpt lat="42.43720140731432" lon="13.17015780501846"><ele>1026.5</ele><time>2026-04-04T15:33:04Z</time></trkpt><trkpt lat="42.43706390433379" lon="13.169872321825167"><ele>1027.0</ele><time>2026-04-04T15:33:05Z</time></trkpt><trkpt lat="42.43692044502352" lon="13.169584090901436"><ele>1027.0</ele><time>2026-04-04T15:33:06Z</time></trkpt><trkpt lat="42.43678862997135" lon="13.169322494781204"><ele>1027.0</ele><time>2026-04-04T15:33:07Z</time></trkpt><trkpt lat="42.43666099253279" lon="13.169070644924796"><ele>1030.0</ele><time>2026-04-04T15:33:08Z</time></trkpt><trkpt lat="42.436535295628865" lon="13.168812307219303"><ele>1033.0</ele><time>2026-04-04T15:33:09Z</time></trkpt><trkpt lat="42.436409673099625" lon="13.168543634475242"><ele>1034.5</ele><time>2026-04-04T15:33:10Z</time></trkpt><trkpt lat="42.436282087140604" lon="13.168275342495228"><ele>1036.0</ele><time>2026-04-04T15:33:11Z</time></trkpt><trkpt lat="42.43616473381405" lon="13.168026636419008"><ele>1036.3333333333333</ele><time>2026-04-04T15:33:12Z</time></trkpt><trkpt lat="42.43605639528661" lon="13.167800975646745"><ele>1036.6666666666667</ele><time>2026-04-04T15:33:13Z</time></trkpt><trkpt lat="42.43594317684135" lon="13.167600244441982"><ele>1037.0</ele><time>2026-04-04T15:33:14Z</time></trkpt><trkpt lat="42.435826663984045" lon="13.167423148133224"><ele>1037.6666666666667</ele><time>2026-04-04T15:33:14.999Z</time></trkpt><trkpt lat="42.43570441210037" lon="13.167266520969607"><ele>1038.3333333333333</ele><time>2026-04-04T15:33:15.999Z</time></trkpt><trkpt lat="42.435594476041544" lon="13.167100994629331"><ele>1039.0</ele><time>2026-04-04T15:33:16.999Z</time></trkpt><trkpt lat="42.435491126467134" lon="13.16691290161938"><ele>1040.3333333333333</ele><time>2026-04-04T15:33:17.999Z</time></trkpt><trkpt lat="42.43538432293306" lon="13.166701672975721"><ele>1041.6666666666667</ele><time>2026-04-04T15:33:18.999Z</time></trkpt><trkpt lat="42.43527693417964" lon="13.166485384592866"><ele>1043.0</ele><time>2026-04-04T15:33:19.999Z</time></trkpt><trkpt lat="42.435166696748574" lon="13.166262724847854"><ele>1044.3333333333335</ele><time>2026-04-04T15:33:20.999Z</time></trkpt><trkpt lat="42.43505552641395" lon="13.166034694052446"><ele>1045.6666666666667</ele><time>2026-04-04T15:33:21.999Z</time></trkpt><trkpt lat="42.43494095030474" lon="13.16581037120604"><ele>1047.0</ele><time>2026-04-04T15:33:22.999Z</time></trkpt><trkpt lat="42.43482913578794" lon="13.16558752366613"><ele>1048.0</ele><time>2026-04-04T15:33:23.999Z</time></trkpt><trkpt lat="42.43471866061326" lon="13.165369260527912"><ele>1049.0</ele><time>2026-04-04T15:33:24.999Z</time></trkpt><trkpt lat="42.43460451793324" lon="13.165153334732787"><ele>1050.0</ele><time>2026-04-04T15:33:25.999Z</time></trkpt><trkpt lat="42.434482418713635" lon="13.164926352356817"><ele>1052.0</ele><time>2026-04-04T15:33:26.999Z</time></trkpt><trkpt lat="42.434376536491264" lon="13.164721687018961"><ele>1054.0</ele><time>2026-04-04T15:33:27.999Z</time></trkpt><trkpt lat="42.434270697904324" lon="13.164508998321521"><ele>1056.0</ele><time>2026-04-04T15:33:28.999Z</time></trkpt><trkpt lat="42.434159497394134" lon="13.164286978449026"><ele>1056.0</ele><time>2026-04-04T15:33:29.999Z</time></trkpt><trkpt lat="42.43405736368322" lon="13.164082153025973"><ele>1056.0</ele><time>2026-04-04T15:33:30.999Z</time></trkpt><trkpt lat="42.43396886096302" lon="13.163895243425381"><ele>1056.0</ele><time>2026-04-04T15:33:31.999Z</time></trkpt><trkpt lat="42.43388513966937" lon="13.163733551715003"><ele>1056.5</ele><time>2026-04-04T15:33:32.999Z</time></trkpt><trkpt lat="42.43381661427974" lon="13.163611570907051"><ele>1057.0</ele><time>2026-04-04T15:33:33.999Z</time></trkpt><trkpt lat="42.43376156744092" lon="13.16351239591106"><ele>1057.5</ele><time>2026-04-04T15:33:34.999Z</time></trkpt><trkpt lat="42.43371079033049" lon="13.163430317632551"><ele>1058.0</ele><time>2026-04-04T15:33:35.999Z</time></trkpt><trkpt lat="42.433657297690615" lon="13.163352833375104"><ele>1058.5</ele><time>2026-04-04T15:33:36.999Z</time></trkpt><trkpt lat="42.433595827467556" lon="13.16327259710355"><ele>1059.0</ele><time>2026-04-04T15:33:37.999Z</time></trkpt><trkpt lat="42.43353236415286" lon="13.163194497045852"><ele>1060.5</ele><time>2026-04-04T15:33:38.999Z</time></trkpt><trkpt lat="42.43347159781821" lon="13.163102586835507"><ele>1062.0</ele><time>2026-04-04T15:33:39.999Z</time></trkpt><trkpt lat="42.433397619194324" lon="13.16297573123814"><ele>1063.5</ele><time>2026-04-04T15:33:40.999Z</time></trkpt><trkpt lat="42.4333256821307" lon="13.162830568275327"><ele>1065.0</ele><time>2026-04-04T15:33:41.999Z</time></trkpt><trkpt lat="42.433252237473795" lon="13.162683082774434"><ele>1065.0</ele><time>2026-04-04T15:33:42.999Z</time></trkpt><trkpt lat="42.433161919805265" lon="13.162510619609888"><ele>1065.0</ele><time>2026-04-04T15:33:43.999Z</time></trkpt><trkpt lat="42.43306298603179" lon="13.162312424943515"><ele>1065.0</ele><time>2026-04-04T15:33:44.999Z</time></trkpt><trkpt lat="42.43295081109976" lon="13.162092678602166"><ele>1067.0</ele><time>2026-04-04T15:33:45.999Z</time></trkpt><trkpt lat="42.43283668682934" lon="13.16186525837323"><ele>1069.0</ele><time>2026-04-04T15:33:46.999Z</time></trkpt><trkpt lat="42.43272281297181" lon="13.16163362389207"><ele>1071.0</ele><time>2026-04-04T15:33:47.999Z</time></trkpt><trkpt lat="42.432609288368845" lon="13.161426446310916"><ele>1072.0</ele><time>2026-04-04T15:33:48.999Z</time></trkpt><trkpt lat="42.43248337865631" lon="13.16121762562892"><ele>1073.0</ele><time>2026-04-04T15:33:49.999Z</time></trkpt><trkpt lat="42.43234998044923" lon="13.161006396160149"><ele>1074.0</ele><time>2026-04-04T15:33:50.999Z</time></trkpt><trkpt lat="42.43220575514945" lon="13.160795245681825"><ele>1077.6666666666667</ele><time>2026-04-04T15:33:51.999Z</time></trkpt><trkpt lat="42.4320556974601" lon="13.160586159442802"><ele>1081.3333333333335</ele><time>2026-04-04T15:33:52.999Z</time></trkpt><trkpt lat="42.431894598158564" lon="13.160376500226409"><ele>1085.0</ele><time>2026-04-04T15:33:53.999Z</time></trkpt><trkpt lat="42.431745035554776" lon="13.160173991579079"><ele>1085.0</ele><time>2026-04-04T15:33:54.999Z</time></trkpt><trkpt lat="42.43160562488116" lon="13.159973154347579"><ele>1085.0</ele><time>2026-04-04T15:33:55.999Z</time></trkpt><trkpt lat="42.43147407478745" lon="13.159797562786297"><ele>1085.0</ele><time>2026-04-04T15:33:56.999Z</time></trkpt><trkpt lat="42.43133251047292" lon="13.159653894410944"><ele>1091.0</ele><time>2026-04-04T15:33:57.999Z</time></trkpt><trkpt lat="42.431163066466496" lon="13.15953296730181"><ele>1097.0</ele><time>2026-04-04T15:33:58.999Z</time></trkpt><trkpt lat="42.43098320146954" lon="13.159393653599512"><ele>1103.0</ele><time>2026-04-04T15:33:59.999Z</time></trkpt><trkpt lat="42.43080643712074" lon="13.159245618637062"><ele>1103.0</ele><time>2026-04-04T15:34:00.999Z</time></trkpt><trkpt lat="42.430649624326854" lon="13.159113423237438"><ele>1103.0</ele><time>2026-04-04T15:34:01.999Z</time></trkpt><trkpt lat="42.43049365486287" lon="13.159006110910957"><ele>1103.0</ele><time>2026-04-04T15:34:02.999Z</time></trkpt><trkpt lat="42.430316320588275" lon="13.158929567611532"><ele>1109.6666666666667</ele><time>2026-04-04T15:34:03.999Z</time></trkpt><trkpt lat="42.43014099275886" lon="13.15883750431122"><ele>1116.3333333333333</ele><time>2026-04-04T15:34:04.999Z</time></trkpt><trkpt lat="42.42998307025221" lon="13.158701787202412"><ele>1123.0</ele><time>2026-04-04T15:34:05.999Z</time></trkpt><trkpt lat="42.42983423301442" lon="13.15852524469989"><ele>1123.0</ele><time>2026-04-04T15:34:06.999Z</time></trkpt><trkpt lat="42.42969072383689" lon="13.158340039392275"><ele>1123.0</ele><time>2026-04-04T15:34:07.999Z</time></trkpt><trkpt lat="42.42952459413832" lon="13.15819820140823"><ele>1123.0</ele><time>2026-04-04T15:34:08.999Z</time></trkpt><trkpt lat="42.42933095003049" lon="13.158093863573932"><ele>1132.0</ele><time>2026-04-04T15:34:09.999Z</time></trkpt><trkpt lat="42.429136586668214" lon="13.158003108945351"><ele>1141.0</ele><time>2026-04-04T15:34:10.999Z</time></trkpt><trkpt lat="42.42894663221371" lon="13.157911345904669"><ele>1150.0</ele><time>2026-04-04T15:34:11.999Z</time></trkpt><trkpt lat="42.42878669470972" lon="13.15780243511974"><ele>1154.75</ele><time>2026-04-04T15:34:12.999Z</time></trkpt><trkpt lat="42.428659971308086" lon="13.15766927561759"><ele>1159.5</ele><time>2026-04-04T15:34:13.999Z</time></trkpt><trkpt lat="42.428560470109105" lon="13.15751614352654"><ele>1164.25</ele><time>2026-04-04T15:34:14.999Z</time></trkpt><trkpt lat="42.428472707349506" lon="13.157375038334932"><ele>1169.0</ele><time>2026-04-04T15:34:15.999Z</time></trkpt><trkpt lat="42.42838139504941" lon="13.157280323897421"><ele>1171.5</ele><time>2026-04-04T15:34:16.999Z</time></trkpt><trkpt lat="42.42827142578423" lon="13.157211787903305"><ele>1174.0</ele><time>2026-04-04T15:34:17.999Z</time></trkpt><trkpt lat="42.42814653080549" lon="13.157165556569831"><ele>1176.5</ele><time>2026-04-04T15:34:18.999Z</time></trkpt><trkpt lat="42.42801121543019" lon="13.157131118352885"><ele>1179.0</ele><time>2026-04-04T15:34:19.999Z</time></trkpt><trkpt lat="42.427858537872225" lon="13.157112225017537"><ele>1182.0</ele><time>2026-04-04T15:34:20.999Z</time></trkpt><trkpt lat="42.42769524580874" lon="13.157082183781721"><ele>1185.0</ele><time>2026-04-04T15:34:21.999Z</time></trkpt><trkpt lat="42.42752348922493" lon="13.15700424375197"><ele>1188.0</ele><time>2026-04-04T15:34:22.999Z</time></trkpt><trkpt lat="42.4273476745446" lon="13.156894546555561"><ele>1193.0</ele><time>2026-04-04T15:34:24Z</time></trkpt><trkpt lat="42.427141653016484" lon="13.156808268017304"><ele>1198.0</ele><time>2026-04-04T15:34:25Z</time></trkpt><trkpt lat="42.42692242982454" lon="13.156746817456435"><ele>1203.0</ele><time>2026-04-04T15:34:26Z</time></trkpt><trkpt lat="42.426709793170346" lon="13.156684579652142"><ele>1203.0</ele><time>2026-04-04T15:34:27Z</time></trkpt><trkpt lat="42.42650693501364" lon="13.156612771245777"><ele>1203.0</ele><time>2026-04-04T15:34:28Z</time></trkpt><trkpt lat="42.42631913605404" lon="13.156514766594594"><ele>1203.0</ele><time>2026-04-04T15:34:29Z</time></trkpt><trkpt lat="42.42616099884453" lon="13.156378822588149"><ele>1213.3333333333333</ele><time>2026-04-04T15:34:30Z</time></trkpt><trkpt lat="42.42601842292716" lon="13.156252948917938"><ele>1223.6666666666665</ele><time>2026-04-04T15:34:31Z</time></trkpt><trkpt lat="42.425851037969714" lon="13.156186391497762"><ele>1234.0</ele><time>2026-04-04T15:34:32Z</time></trkpt><trkpt lat="42.4256793554005" lon="13.156113055672984"><ele>1234.0</ele><time>2026-04-04T15:34:33Z</time></trkpt><trkpt lat="42.42551164583782" lon="13.156092920250213"><ele>1234.0</ele><time>2026-04-04T15:34:34Z</time></trkpt><trkpt lat="42.42536438267858" lon="13.156059687547085"><ele>1234.0</ele><time>2026-04-04T15:34:35Z</time></trkpt><trkpt lat="42.42522532438902" lon="13.156067422598053"><ele>1237.0</ele><time>2026-04-04T15:34:36Z</time></trkpt><trkpt lat="42.42508021718088" lon="13.156083691700578"><ele>1240.0</ele><time>2026-04-04T15:34:37Z</time></trkpt><trkpt lat="42.424917532412564" lon="13.156141463114837"><ele>1243.0</ele><time>2026-04-04T15:34:38Z</time></trkpt><trkpt lat="42.42473867131539" lon="13.15621854140027"><ele>1250.0</ele><time>2026-04-04T15:34:39Z</time></trkpt><trkpt lat="42.42456178283955" lon="13.156290611632889"><ele>1257.0</ele><time>2026-04-04T15:34:40Z</time></trkpt><trkpt lat="42.42436945769949" lon="13.156379434657719"><ele>1264.0</ele><time>2026-04-04T15:34:41Z</time></trkpt><trkpt lat="42.42419343502732" lon="13.156483088610244"><ele>1264.0</ele><time>2026-04-04T15:34:42Z</time></trkpt><trkpt lat="42.42406033916634" lon="13.15655292284045"><ele>1264.0</ele><time>2026-04-04T15:34:43Z</time></trkpt><trkpt lat="42.42394044027133" lon="13.156632074678027"><ele>1264.0</ele><time>2026-04-04T15:34:44Z</time></trkpt><trkpt lat="42.42384210962249" lon="13.156737557294194"><ele>1264.0</ele><time>2026-04-04T15:34:45Z</time></trkpt><trkpt lat="42.42371889032664" lon="13.156874426980933"><ele>1264.0</ele><time>2026-04-04T15:34:46Z</time></trkpt><trkpt lat="42.42360081905445" lon="13.157005150414813"><ele>1264.0</ele><time>2026-04-04T15:34:47Z</time></trkpt><trkpt lat="42.42348682381468" lon="13.157110498668805"><ele>1264.0</ele><time>2026-04-04T15:34:48Z</time></trkpt><trkpt lat="42.423383304031695" lon="13.15723483042301"><ele>1264.0</ele><time>2026-04-04T15:34:49Z</time></trkpt><trkpt lat="42.423275412875135" lon="13.157358379027764"><ele>1264.3333333333333</ele><time>2026-04-04T15:34:50Z</time></trkpt><trkpt lat="42.42311642881125" lon="13.157451809913683"><ele>1264.6666666666667</ele><time>2026-04-04T15:34:51Z</time></trkpt><trkpt lat="42.422968124238686" lon="13.157517089287184"><ele>1265.0</ele><time>2026-04-04T15:34:52Z</time></trkpt><trkpt lat="42.422803484744044" lon="13.15759984309442"><ele>1267.75</ele><time>2026-04-04T15:34:53Z</time></trkpt><trkpt lat="42.42265478421904" lon="13.157690391730743"><ele>1270.5</ele><time>2026-04-04T15:34:54Z</time></trkpt><trkpt lat="42.42254862155722" lon="13.15766250605984"><ele>1273.25</ele><time>2026-04-04T15:34:55Z</time></trkpt><trkpt lat="42.42242846585496" lon="13.157626418838676"><ele>1276.0</ele><time>2026-04-04T15:34:56Z</time></trkpt><trkpt lat="42.42230900763112" lon="13.157548991410534"><ele>1276.0</ele><time>2026-04-04T15:34:57Z</time></trkpt><trkpt lat="42.4221775087195" lon="13.157449871053716"><ele>1276.0</ele><time>2026-04-04T15:34:58Z</time></trkpt><trkpt lat="42.42203600342" lon="13.157333258863389"><ele>1276.0</ele><time>2026-04-04T15:34:59Z</time></trkpt><trkpt lat="42.421900122922736" lon="13.15720004119503"><ele>1282.75</ele><time>2026-04-04T15:35:00Z</time></trkpt><trkpt lat="42.421771324739616" lon="13.157071030102939"><ele>1289.5</ele><time>2026-04-04T15:35:01Z</time></trkpt><trkpt lat="42.42166282376753" lon="13.156977445397134"><ele>1296.25</ele><time>2026-04-04T15:35:02Z</time></trkpt><trkpt lat="42.42153828436798" lon="13.156933259755904"><ele>1303.0</ele><time>2026-04-04T15:35:03Z</time></trkpt><trkpt lat="42.42138713322199" lon="13.156881572132255"><ele>1309.0</ele><time>2026-04-04T15:35:04Z</time></trkpt><trkpt lat="42.421240465588454" lon="13.156807230700245"><ele>1315.0</ele><time>2026-04-04T15:35:05Z</time></trkpt><trkpt lat="42.421097041437676" lon="13.156749683456386"><ele>1321.0</ele><time>2026-04-04T15:35:06Z</time></trkpt><trkpt lat="42.42096264066882" lon="13.156747423414897"><ele>1327.0</ele><time>2026-04-04T15:35:07Z</time></trkpt><trkpt lat="42.420827006947526" lon="13.156767769006445"><ele>1327.0</ele><time>2026-04-04T15:35:08Z</time></trkpt><trkpt lat="42.42067477890119" lon="13.156824809776008"><ele>1327.0</ele><time>2026-04-04T15:35:09Z</time></trkpt><trkpt lat="42.42055471122873" lon="13.156813556762952"><ele>1327.0</ele><time>2026-04-04T15:35:10Z</time></trkpt><trkpt lat="42.420440331816614" lon="13.1567782789466"><ele>1327.0</ele><time>2026-04-04T15:35:11Z</time></trkpt><trkpt lat="42.420364392691965" lon="13.156738203557218"><ele>1331.1666666666665</ele><time>2026-04-04T15:35:12Z</time></trkpt><trkpt lat="42.420292590915" lon="13.156611556935804"><ele>1335.3333333333333</ele><time>2026-04-04T15:35:14Z</time></trkpt><trkpt lat="42.42030187960535" lon="13.156520834418396"><ele>1339.5</ele><time>2026-04-04T15:35:16Z</time></trkpt><trkpt lat="42.42033105711377" lon="13.15643688905256"><ele>1343.6666666666667</ele><time>2026-04-04T15:35:24.999Z</time></trkpt><trkpt lat="42.42039165002627" lon="13.156370541932496"><ele>1347.8333333333335</ele><time>2026-04-04T15:35:26.999Z</time></trkpt><trkpt lat="42.42048400024965" lon="13.156289221684318"><ele>1352.0</ele><time>2026-04-04T15:35:29.999Z</time></trkpt><trkpt lat="42.42054567101856" lon="13.156248536969978"><ele>1352.8333333333335</ele><time>2026-04-04T15:35:31.999Z</time></trkpt><trkpt lat="42.420588491054154" lon="13.156181579720608"><ele>1353.6666666666667</ele><time>2026-04-04T15:35:34.999Z</time></trkpt><trkpt lat="42.42063368612999" lon="13.156090604833562"><ele>1354.5</ele><time>2026-04-04T15:35:36.999Z</time></trkpt><trkpt lat="42.42067379745223" lon="13.156007627893779"><ele>1355.3333333333333</ele><time>2026-04-04T15:35:43.999Z</time></trkpt><trkpt lat="42.42073061253954" lon="13.155897425772915"><ele>1356.1666666666665</ele><time>2026-04-04T15:35:45.999Z</time></trkpt><trkpt lat="42.42076887702171" lon="13.155815783975193"><ele>1357.0</ele><time>2026-04-04T15:35:48.999Z</time></trkpt><trkpt lat="42.420922395247835" lon="13.155538997399871"><ele>1362.1999999999998</ele><time>2026-04-04T15:35:49.999Z</time></trkpt><trkpt lat="42.4210363754177" lon="13.155432235417969"><ele>1367.4</ele><time>2026-04-04T15:35:50.999Z</time></trkpt><trkpt lat="42.42114506872626" lon="13.155392538478498"><ele>1372.6</ele><time>2026-04-04T15:35:51.999Z</time></trkpt><trkpt lat="42.42123633659719" lon="13.155408962663753"><ele>1377.8000000000002</ele><time>2026-04-04T15:35:52.999Z</time></trkpt><trkpt lat="42.42133053805145" lon="13.15539874986206"><ele>1383.0</ele><time>2026-04-04T15:35:53.999Z</time></trkpt><trkpt lat="42.42142961386842" lon="13.155394488649751"><ele>1383.0</ele><time>2026-04-04T15:35:54.999Z</time></trkpt><trkpt lat="42.421524862365224" lon="13.155383816932398"><ele>1383.0</ele><time>2026-04-04T15:35:55.999Z</time></trkpt><trkpt lat="42.42161000359189" lon="13.155343576209813"><ele>1383.0</ele><time>2026-04-04T15:35:56.999Z</time></trkpt><trkpt lat="42.42169757335597" lon="13.155297902839818"><ele>1383.0</ele><time>2026-04-04T15:35:57.999Z</time></trkpt><trkpt lat="42.42177813756606" lon="13.155229760133352"><ele>1383.0</ele><time>2026-04-04T15:35:58.999Z</time></trkpt><trkpt lat="42.42184691490523" lon="13.155123918974752"><ele>1383.0</ele><time>2026-04-04T15:35:59.999Z</time></trkpt><trkpt lat="42.421919961845816" lon="13.155046446324144"><ele>1383.0</ele><time>2026-04-04T15:36:00.999Z</time></trkpt><trkpt lat="42.42201120070489" lon="13.155019673796593"><ele>1383.0</ele><time>2026-04-04T15:36:01.999Z</time></trkpt><trkpt lat="42.422091096846614" lon="13.154959691517917"><ele>1383.0</ele><time>2026-04-04T15:36:02.999Z</time></trkpt><trkpt lat="42.422145375050725" lon="13.154894551022496"><ele>1383.0</ele><time>2026-04-04T15:36:03.999Z</time></trkpt><trkpt lat="42.422193634021724" lon="13.154810371753712"><ele>1383.0</ele><time>2026-04-04T15:36:04.999Z</time></trkpt><trkpt lat="42.42223286811221" lon="13.15473318326005"><ele>1382.6666666666667</ele><time>2026-04-04T15:36:05.999Z</time></trkpt><trkpt lat="42.42227295165374" lon="13.15464495390353"><ele>1382.3333333333333</ele><time>2026-04-04T15:36:06.999Z</time></trkpt><trkpt lat="42.42231377660425" lon="13.154562404434063"><ele>1382.0</ele><time>2026-04-04T15:36:07.999Z</time></trkpt><trkpt lat="42.42235569382505" lon="13.154474826827016"><ele>1381.6666666666665</ele><time>2026-04-04T15:36:08.999Z</time></trkpt><trkpt lat="42.42237732545729" lon="13.154385890314956"><ele>1381.3333333333333</ele><time>2026-04-04T15:36:09.999Z</time></trkpt><trkpt lat="42.42239387998736" lon="13.154261118943856"><ele>1381.0</ele><time>2026-04-04T15:36:11.999Z</time></trkpt><trkpt lat="42.422488067266144" lon="13.154240396011037"><ele>1381.0</ele><time>2026-04-04T15:36:13.999Z</time></trkpt><trkpt lat="42.4225470628295" lon="13.154187797219342"><ele>1381.0</ele><time>2026-04-04T15:36:22.999Z</time></trkpt><trkpt lat="42.42264824103405" lon="13.154118752042816"><ele>1381.0</ele><time>2026-04-04T15:36:24.999Z</time></trkpt><trkpt lat="42.422684479528016" lon="13.15403439858737"><ele>1381.0</ele><time>2026-04-04T15:36:26.999Z</time></trkpt><trkpt lat="42.42271831232708" lon="13.15395471624711"><ele>1381.0</ele><time>2026-04-04T15:36:30Z</time></trkpt><trkpt lat="42.42277917032735" lon="13.153864069170451"><ele>1381.0</ele><time>2026-04-04T15:36:33Z</time></trkpt><trkpt lat="42.422828319646925" lon="13.153807033745682"><ele>1381.3333333333333</ele><time>2026-04-04T15:36:35Z</time></trkpt><trkpt lat="42.4228725265859" lon="13.15374355208698"><ele>1381.6666666666665</ele><time>2026-04-04T15:36:37Z</time></trkpt><trkpt lat="42.42293294096688" lon="13.153640765603232"><ele>1382.0</ele><time>2026-04-04T15:36:39Z</time></trkpt><trkpt lat="42.422998609337185" lon="13.153568660257186"><ele>1382.3333333333333</ele><time>2026-04-04T15:36:41Z</time></trkpt><trkpt lat="42.42307861722302" lon="13.153563372528229"><ele>1382.6666666666667</ele><time>2026-04-04T15:36:44Z</time></trkpt><trkpt lat="42.4231392150521" lon="13.153532994760914"><ele>1383.0</ele><time>2026-04-04T15:36:46Z</time></trkpt><trkpt lat="42.423240555673544" lon="13.153521565462743"><ele>1383.0</ele><time>2026-04-04T15:36:49Z</time></trkpt><trkpt lat="42.423325991364806" lon="13.15344644288265"><ele>1383.0</ele><time>2026-04-04T15:36:51Z</time></trkpt><trkpt lat="42.42340849740808" lon="13.153368130250131"><ele>1383.0</ele><time>2026-04-04T15:36:52Z</time></trkpt><trkpt lat="42.423460150680086" lon="13.153306992749243"><ele>1383.0</ele><time>2026-04-04T15:36:53Z</time></trkpt><trkpt lat="42.42350944762978" lon="13.153237011515373"><ele>1383.0</ele><time>2026-04-04T15:36:54Z</time></trkpt><trkpt lat="42.42356935080986" lon="13.153150311206204"><ele>1383.0</ele><time>2026-04-04T15:36:55Z</time></trkpt><trkpt lat="42.423635344752114" lon="13.153058477406457"><ele>1383.5</ele><time>2026-04-04T15:36:56Z</time></trkpt><trkpt lat="42.423702291811296" lon="13.152982446702884"><ele>1384.0</ele><time>2026-04-04T15:36:57Z</time></trkpt><trkpt lat="42.423766206341135" lon="13.152920406017738"><ele>1384.5</ele><time>2026-04-04T15:36:58Z</time></trkpt><trkpt lat="42.42384168310905" lon="13.152876232238656"><ele>1385.0</ele><time>2026-04-04T15:36:59Z</time></trkpt><trkpt lat="42.42390087216554" lon="13.152839908666747"><ele>1385.5</ele><time>2026-04-04T15:37:00Z</time></trkpt><trkpt lat="42.423993432772264" lon="13.15273910735737"><ele>1386.0</ele><time>2026-04-04T15:37:02Z</time></trkpt><trkpt lat="42.42405602737222" lon="13.152654391695279"><ele>1386.0</ele><time>2026-04-04T15:37:03Z</time></trkpt><trkpt lat="42.42414335811739" lon="13.15256955488831"><ele>1386.0</ele><time>2026-04-04T15:37:04Z</time></trkpt><trkpt lat="42.42421389730348" lon="13.15248241841791"><ele>1386.0</ele><time>2026-04-04T15:37:05Z</time></trkpt><trkpt lat="42.42428639226642" lon="13.1523746301791"><ele>1386.0</ele><time>2026-04-04T15:37:06Z</time></trkpt><trkpt lat="42.424348092739656" lon="13.152286660286592"><ele>1386.0</ele><time>2026-04-04T15:37:07Z</time></trkpt><trkpt lat="42.424404485155264" lon="13.15221659932163"><ele>1387.6666666666667</ele><time>2026-04-04T15:37:08Z</time></trkpt><trkpt lat="42.42446381136374" lon="13.152132443237068"><ele>1389.3333333333333</ele><time>2026-04-04T15:37:09Z</time></trkpt><trkpt lat="42.424514847007444" lon="13.152035551067735"><ele>1391.0</ele><time>2026-04-04T15:37:10Z</time></trkpt><trkpt lat="42.42455220023422" lon="13.151958305830675"><ele>1392.6666666666665</ele><time>2026-04-04T15:37:11Z</time></trkpt><trkpt lat="42.42453407200618" lon="13.15184806950989"><ele>1394.3333333333333</ele><time>2026-04-04T15:38:18.999Z</time></trkpt><trkpt lat="42.42448233510258" lon="13.151788442741626"><ele>1396.0</ele><time>2026-04-04T15:38:19.999Z</time></trkpt><trkpt lat="42.42443457241781" lon="13.151719873876313"><ele>1396.0</ele><time>2026-04-04T15:38:21.999Z</time></trkpt><trkpt lat="42.42436223775222" lon="13.151697342912252"><ele>1396.0</ele><time>2026-04-04T15:38:23.999Z</time></trkpt><trkpt lat="42.42427889043826" lon="13.151708098180851"><ele>1396.0</ele><time>2026-04-04T15:38:25.999Z</time></trkpt><trkpt lat="42.42421053826546" lon="13.151659850482696"><ele>1396.0</ele><time>2026-04-04T15:38:27.999Z</time></trkpt><trkpt lat="42.42419360994386" lon="13.151558792523891"><ele>1396.0</ele><time>2026-04-04T15:38:29.999Z</time></trkpt><trkpt lat="42.42419506750647" lon="13.151472888810122"><ele>1396.0</ele><time>2026-04-04T15:38:31.999Z</time></trkpt><trkpt lat="42.42413715661449" lon="13.15137887649907"><ele>1397.25</ele><time>2026-04-04T15:38:33.999Z</time></trkpt><trkpt lat="42.42404968356247" lon="13.151329786141895"><ele>1398.5</ele><time>2026-04-04T15:38:36Z</time></trkpt><trkpt lat="42.42396687623745" lon="13.151330636137894"><ele>1399.75</ele><time>2026-04-04T15:38:38Z</time></trkpt><trkpt lat="42.423752577763395" lon="13.151366500213623"><ele>1401.0</ele><time>2026-04-04T15:38:41Z</time></trkpt><trkpt lat="42.42365280006202" lon="13.151391428647901"><ele>1401.0</ele><time>2026-04-04T15:38:42Z</time></trkpt><trkpt lat="42.423556052872975" lon="13.151412745796181"><ele>1401.0</ele><time>2026-04-04T15:38:43Z</time></trkpt><trkpt lat="42.42347685378827" lon="13.151435072171006"><ele>1401.0</ele><time>2026-04-04T15:38:44Z</time></trkpt><trkpt lat="42.423414708455795" lon="13.151450966255341"><ele>1401.0</ele><time>2026-04-04T15:38:45Z</time></trkpt><trkpt lat="42.4233499554015" lon="13.151458405033432"><ele>1401.0</ele><time>2026-04-04T15:38:46Z</time></trkpt><trkpt lat="42.423279997887214" lon="13.151473729703577"><ele>1401.0</ele><time>2026-04-04T15:38:47Z</time></trkpt><trkpt lat="42.42321356847623" lon="13.151493440646098"><ele>1401.0</ele><time>2026-04-04T15:38:48Z</time></trkpt><trkpt lat="42.42310165488894" lon="13.151545961546875"><ele>1401.6666666666667</ele><time>2026-04-04T15:38:50Z</time></trkpt><trkpt lat="42.42304047850687" lon="13.151578914559922"><ele>1402.3333333333333</ele><time>2026-04-04T15:38:51Z</time></trkpt><trkpt lat="42.422978125601134" lon="13.151618694255651"><ele>1403.0</ele><time>2026-04-04T15:38:52Z</time></trkpt><trkpt lat="42.422916068030204" lon="13.15165689946501"><ele>1403.6666666666665</ele><time>2026-04-04T15:38:53Z</time></trkpt><trkpt lat="42.42284757466508" lon="13.151675283624508"><ele>1404.3333333333333</ele><time>2026-04-04T15:38:54Z</time></trkpt><trkpt lat="42.4227680331992" lon="13.151690547250553"><ele>1405.0</ele><time>2026-04-04T15:38:55Z</time></trkpt><trkpt lat="42.42265613803317" lon="13.151702792349047"><ele>1406.5</ele><time>2026-04-04T15:38:56Z</time></trkpt><trkpt lat="42.42252108679675" lon="13.151705787290656"><ele>1408.0</ele><time>2026-04-04T15:38:57Z</time></trkpt><trkpt lat="42.42239380119089" lon="13.151714800883825"><ele>1409.5</ele><time>2026-04-04T15:38:58Z</time></trkpt><trkpt lat="42.42226151223667" lon="13.151719093309943"><ele>1411.0</ele><time>2026-04-04T15:38:59Z</time></trkpt><trkpt lat="42.42210884424094" lon="13.151740468356545"><ele>1413.4</ele><time>2026-04-04T15:39:00Z</time></trkpt><trkpt lat="42.421986803175386" lon="13.151799779249846"><ele>1415.8</ele><time>2026-04-04T15:39:01Z</time></trkpt><trkpt lat="42.42189995107126" lon="13.151859511069537"><ele>1418.2</ele><time>2026-04-04T15:39:02Z</time></trkpt><trkpt lat="42.42182081888996" lon="13.15191729295499"><ele>1420.6000000000001</ele><time>2026-04-04T15:39:03Z</time></trkpt><trkpt lat="42.421749287625154" lon="13.151980606622175"><ele>1423.0</ele><time>2026-04-04T15:39:04Z</time></trkpt><trkpt lat="42.42164789089126" lon="13.152035571465923"><ele>1423.0</ele><time>2026-04-04T15:39:05Z</time></trkpt><trkpt lat="42.42163947749993" lon="13.15212394486593"><ele>1423.0</ele><time>2026-04-04T15:39:06Z</time></trkpt><trkpt lat="42.42157434206554" lon="13.152249662224541"><ele>1423.0</ele><time>2026-04-04T15:39:08Z</time></trkpt><trkpt lat="42.42155311087791" lon="13.152386977982308"><ele>1423.0</ele><time>2026-04-04T15:39:10Z</time></trkpt><trkpt lat="42.42158186490682" lon="13.152485632650787"><ele>1423.0</ele><time>2026-04-04T15:39:12Z</time></trkpt><trkpt lat="42.42164424056638" lon="13.152521602905304"><ele>1423.0</ele><time>2026-04-04T15:39:14Z</time></trkpt><trkpt lat="42.42177119506209" lon="13.1524910674561"><ele>1422.3333333333333</ele><time>2026-04-04T15:39:16Z</time></trkpt><trkpt lat="42.4218651996146" lon="13.152492095024924"><ele>1421.6666666666665</ele><time>2026-04-04T15:39:17Z</time></trkpt><trkpt lat="42.421924806077364" lon="13.152573188177689"><ele>1421.0</ele><time>2026-04-04T15:39:19Z</time></trkpt><trkpt lat="42.4218989734783" lon="13.15265150607326"><ele>1420.3333333333333</ele><time>2026-04-04T15:39:21Z</time></trkpt><trkpt lat="42.42179916244913" lon="13.152716035505776"><ele>1419.6666666666667</ele><time>2026-04-04T15:39:23Z</time></trkpt><trkpt lat="42.42172451928359" lon="13.152762617730986"><ele>1419.0</ele><time>2026-04-04T15:39:24Z</time></trkpt><trkpt lat="42.4216612535636" lon="13.152804728983417"><ele>1419.0</ele><time>2026-04-04T15:39:25Z</time></trkpt><trkpt lat="42.421595820937924" lon="13.152833804134273"><ele>1419.0</ele><time>2026-04-04T15:39:26Z</time></trkpt><trkpt lat="42.421525537351684" lon="13.152890629667901"><ele>1419.0</ele><time>2026-04-04T15:39:27Z</time></trkpt><trkpt lat="42.42145598846157" lon="13.152950740117637"><ele>1419.0</ele><time>2026-04-04T15:39:28Z</time></trkpt><trkpt lat="42.42138683498985" lon="13.152995663133003"><ele>1419.0</ele><time>2026-04-04T15:39:29Z</time></trkpt><trkpt lat="42.42128014697756" lon="13.152978208490628"><ele>1419.0</ele><time>2026-04-04T15:39:31Z</time></trkpt><trkpt lat="42.42116819743303" lon="13.152868755604043"><ele>1419.3333333333333</ele><time>2026-04-04T15:39:33Z</time></trkpt><trkpt lat="42.421093731353274" lon="13.152848136945853"><ele>1419.6666666666667</ele><time>2026-04-04T15:39:34Z</time></trkpt><trkpt lat="42.421024721367175" lon="13.152880366471807"><ele>1420.0</ele><time>2026-04-04T15:39:34.999Z</time></trkpt><trkpt lat="42.420955005995154" lon="13.152940632815993"><ele>1420.3333333333335</ele><time>2026-04-04T15:39:35.999Z</time></trkpt><trkpt lat="42.420884464912845" lon="13.152981079794895"><ele>1420.6666666666667</ele><time>2026-04-04T15:39:36.999Z</time></trkpt><trkpt lat="42.42080597282658" lon="13.152981614460796"><ele>1421.0</ele><time>2026-04-04T15:39:37.999Z</time></trkpt><trkpt lat="42.420724558945395" lon="13.15296476342897"><ele>1421.0</ele><time>2026-04-04T15:39:38.999Z</time></trkpt><trkpt lat="42.42063943493129" lon="13.152930299901119"><ele>1421.0</ele><time>2026-04-04T15:39:39.999Z</time></trkpt><trkpt lat="42.420554191384575" lon="13.152890155754363"><ele>1421.0</ele><time>2026-04-04T15:39:40.999Z</time></trkpt><trkpt lat="42.42047420824369" lon="13.152862690134247"><ele>1421.0</ele><time>2026-04-04T15:39:41.999Z</time></trkpt><trkpt lat="42.42040344687948" lon="13.152865324208985"><ele>1421.0</ele><time>2026-04-04T15:39:42.999Z</time></trkpt><trkpt lat="42.420329044432215" lon="13.152892595800864"><ele>1421.0</ele><time>2026-04-04T15:39:43.999Z</time></trkpt><trkpt lat="42.42024065096089" lon="13.152936095317669"><ele>1421.1666666666667</ele><time>2026-04-04T15:39:44.999Z</time></trkpt><trkpt lat="42.42016010506734" lon="13.152959531817036"><ele>1421.3333333333335</ele><time>2026-04-04T15:39:45.999Z</time></trkpt><trkpt lat="42.42010180449769" lon="13.152998190942652"><ele>1421.5</ele><time>2026-04-04T15:39:46.999Z</time></trkpt><trkpt lat="42.42005928567186" lon="13.15309071800008"><ele>1421.6666666666667</ele><time>2026-04-04T15:39:48.999Z</time></trkpt><trkpt lat="42.42014257990412" lon="13.153135584287142"><ele>1421.8333333333333</ele><time>2026-04-04T15:39:51.999Z</time></trkpt><trkpt lat="42.420159554327704" lon="13.153046811451004"><ele>1422.0</ele><time>2026-04-04T15:39:54.999Z</time></trkpt><trkpt lat="42.42007960412047" lon="13.152999240630969"><ele>1422.0</ele><time>2026-04-04T15:39:57.999Z</time></trkpt><trkpt lat="42.41999898657218" lon="13.152968929586049"><ele>1422.0</ele><time>2026-04-04T15:39:59.999Z</time></trkpt><trkpt lat="42.41991743573486" lon="13.152925728802575"><ele>1422.0</ele><time>2026-04-04T15:40:01.999Z</time></trkpt><trkpt lat="42.419829849682934" lon="13.152921679053984"><ele>1422.0</ele><time>2026-04-04T15:40:03.999Z</time></trkpt><trkpt lat="42.4197828374108" lon="13.152839626994826"><ele>1422.0</ele><time>2026-04-04T15:40:05.999Z</time></trkpt><trkpt lat="42.41972284681238" lon="13.152806819253087"><ele>1422.0</ele><time>2026-04-04T15:40:23.999Z</time></trkpt><trkpt lat="42.41965593119907" lon="13.15279065186585"><ele>1424.1666666666667</ele><time>2026-04-04T15:40:24.999Z</time></trkpt><trkpt lat="42.41958807427769" lon="13.152764087399207"><ele>1426.3333333333333</ele><time>2026-04-04T15:40:25.999Z</time></trkpt><trkpt lat="42.41951854957815" lon="13.15274124229575"><ele>1428.5</ele><time>2026-04-04T15:40:26.999Z</time></trkpt><trkpt lat="42.41948482235778" lon="13.152838262739275"><ele>1430.6666666666665</ele><time>2026-04-04T15:40:34.999Z</time></trkpt><trkpt lat="42.4195754484124" lon="13.152835809496244"><ele>1432.8333333333333</ele><time>2026-04-04T15:40:36.999Z</time></trkpt><trkpt lat="42.419582785436354" lon="13.15273074200486"><ele>1435.0</ele><time>2026-04-04T15:40:38.999Z</time></trkpt><trkpt lat="42.4195360792184" lon="13.15279817996658"><ele>1435.0</ele><time>2026-04-04T15:40:43Z</time></trkpt><trkpt lat="42.41954249141363" lon="13.152696660391209"><ele>1435.0</ele><time>2026-04-04T15:40:45Z</time></trkpt><trkpt lat="42.41960311992117" lon="13.152585048189243"><ele>1435.0</ele><time>2026-04-04T15:40:47Z</time></trkpt><trkpt lat="42.419607932736334" lon="13.152499409531702"><ele>1435.0</ele><time>2026-04-04T15:40:50Z</time></trkpt><trkpt lat="42.41960772036757" lon="13.152396500427134"><ele>1435.0</ele><time>2026-04-04T15:40:56Z</time></trkpt></trkseg></trk></gpx>